<?xml version='1.0' encoding='UTF-8'?><gpx version="1.1" creator="JPX - https://github.com/jenetics/jpx" xmlns="http://www.topografix.com/GPX/1/1"><trk><trkseg><trkpt lat="39.64489326838517" lon="8.982818504020248"><ele>167.0</ele><time>2026-05-02T11:59:53Z</time></trkpt><trkpt lat="39.64488274376008" lon="8.982937019055191"><ele>167.0</ele><time>2026-05-02T11:59:57Z</time></trkpt><trkpt lat="39.6448497029335" lon="8.983097262993594"><ele>167.0</ele><time>2026-05-02T11:59:59Z</time></trkpt><trkpt lat="39.644817354138695" lon="8.983183804180133"><ele>167.0</ele><time>2026-05-02T12:00:00Z</time></trkpt><trkpt lat="39.64478918288035" lon="8.983266385833657"><ele>167.0</ele><time>2026-05-02T12:00:01Z</time></trkpt><trkpt lat="39.64473293442023" lon="8.983325997727158"><ele>167.0</ele><time>2026-05-02T12:00:02Z</time></trkpt><trkpt lat="39.644694218256554" lon="8.983394748729754"><ele>167.39999999999998</ele><time>2026-05-02T12:00:03Z</time></trkpt><trkpt lat="39.644644323874246" lon="8.983446529473738"><ele>167.79999999999998</ele><time>2026-05-02T12:00:04Z</time></trkpt><trkpt lat="39.64454830831749" lon="8.983510528103908"><ele>168.2</ele><time>2026-05-02T12:00:05.999Z</time></trkpt><trkpt lat="39.64446123468057" lon="8.983567391391599"><ele>168.6</ele><time>2026-05-02T12:00:07.999Z</time></trkpt><trkpt lat="39.64435354898371" lon="8.983639980651917"><ele>169.0</ele><time>2026-05-02T12:00:09.999Z</time></trkpt><trkpt lat="39.644277364492716" lon="8.983701025387157"><ele>169.14285714285714</ele><time>2026-05-02T12:00:11.999Z</time></trkpt><trkpt lat="39.64421380360295" lon="8.983759168785523"><ele>169.28571428571428</ele><time>2026-05-02T12:00:14.999Z</time></trkpt><trkpt lat="39.64414623625707" lon="8.983741580331328"><ele>169.42857142857144</ele><time>2026-05-02T12:00:20.999Z</time></trkpt><trkpt lat="39.64407951850701" lon="8.983761737439231"><ele>169.57142857142856</ele><time>2026-05-02T12:01:07.998Z</time></trkpt><trkpt lat="39.64403338960457" lon="8.983693562043817"><ele>169.7142857142857</ele><time>2026-05-02T12:01:11.998Z</time></trkpt><trkpt lat="39.6439886497184" lon="8.983634011338738"><ele>169.85714285714286</ele><time>2026-05-02T12:01:14.998Z</time></trkpt><trkpt lat="39.64392252507818" lon="8.983557470783301"><ele>170.0</ele><time>2026-05-02T12:01:17.998Z</time></trkpt><trkpt lat="39.64389099050826" lon="8.983482004900086"><ele>170.0</ele><time>2026-05-02T12:01:19.998Z</time></trkpt><trkpt lat="39.6438602032316" lon="8.983392908112648"><ele>170.0</ele><time>2026-05-02T12:01:21.998Z</time></trkpt><trkpt lat="39.64382135751402" lon="8.983325355855856"><ele>170.0</ele><time>2026-05-02T12:01:23.998Z</time></trkpt><trkpt lat="39.643795690160644" lon="8.983238514837817"><ele>170.0</ele><time>2026-05-02T12:01:25.998Z</time></trkpt><trkpt lat="39.64370452389495" lon="8.98319104196555"><ele>170.0</ele><time>2026-05-02T12:01:30Z</time></trkpt><trkpt lat="39.64364443799598" lon="8.983164963362928"><ele>170.0</ele><time>2026-05-02T12:01:31Z</time></trkpt><trkpt lat="39.643575551312914" lon="8.983127196247043"><ele>170.0</ele><time>2026-05-02T12:01:32Z</time></trkpt><trkpt lat="39.643514072576295" lon="8.983084336898065"><ele>169.71428571428572</ele><time>2026-05-02T12:01:33Z</time></trkpt><trkpt lat="39.64344708209668" lon="8.983043975506952"><ele>169.42857142857142</ele><time>2026-05-02T12:01:34Z</time></trkpt><trkpt lat="39.64338046986508" lon="8.983003680030839"><ele>169.14285714285714</ele><time>2026-05-02T12:01:35Z</time></trkpt><trkpt lat="39.64331803099102" lon="8.982971292103171"><ele>168.85714285714286</ele><time>2026-05-02T12:01:36Z</time></trkpt><trkpt lat="39.64324900976169" lon="8.98293888606668"><ele>168.57142857142856</ele><time>2026-05-02T12:01:37Z</time></trkpt><trkpt lat="39.64318892073224" lon="8.982911850059631"><ele>168.28571428571428</ele><time>2026-05-02T12:01:38Z</time></trkpt><trkpt lat="39.643127411523" lon="8.982889768120748"><ele>168.0</ele><time>2026-05-02T12:01:39Z</time></trkpt><trkpt lat="39.643059794000294" lon="8.982862771353057"><ele>168.0</ele><time>2026-05-02T12:01:40Z</time></trkpt><trkpt lat="39.64298966357946" lon="8.98283330355187"><ele>168.0</ele><time>2026-05-02T12:01:41Z</time></trkpt><trkpt lat="39.64291617214245" lon="8.982799629229808"><ele>168.0</ele><time>2026-05-02T12:01:42Z</time></trkpt><trkpt lat="39.642847944589235" lon="8.982772015869907"><ele>168.0</ele><time>2026-05-02T12:01:43Z</time></trkpt><trkpt lat="39.64278460611753" lon="8.982740750500142"><ele>168.0</ele><time>2026-05-02T12:01:44Z</time></trkpt><trkpt lat="39.64271814470322" lon="8.982718164242991"><ele>168.0</ele><time>2026-05-02T12:01:45Z</time></trkpt><trkpt lat="39.64265226373626" lon="8.982699908201923"><ele>168.0</ele><time>2026-05-02T12:01:46Z</time></trkpt><trkpt lat="39.64258284222546" lon="8.982676400340488"><ele>167.4</ele><time>2026-05-02T12:01:47Z</time></trkpt><trkpt lat="39.64245930116318" lon="8.982616721986593"><ele>166.8</ele><time>2026-05-02T12:01:49Z</time></trkpt><trkpt lat="39.64239540362858" lon="8.98256844021231"><ele>166.2</ele><time>2026-05-02T12:01:50Z</time></trkpt><trkpt lat="39.64233667717871" lon="8.982511171018496"><ele>165.6</ele><time>2026-05-02T12:01:51Z</time></trkpt><trkpt lat="39.64227731830986" lon="8.98245602830195"><ele>165.0</ele><time>2026-05-02T12:01:52Z</time></trkpt><trkpt lat="39.64218855797331" lon="8.98235643491319"><ele>163.16666666666666</ele><time>2026-05-02T12:01:54Z</time></trkpt><trkpt lat="39.64212914440429" lon="8.982312523257152"><ele>161.33333333333334</ele><time>2026-05-02T12:01:55Z</time></trkpt><trkpt lat="39.64207252853398" lon="8.9822684306146"><ele>159.5</ele><time>2026-05-02T12:01:56Z</time></trkpt><trkpt lat="39.64197657350134" lon="8.982191291390835"><ele>157.66666666666669</ele><time>2026-05-02T12:01:58Z</time></trkpt><trkpt lat="39.64192265659309" lon="8.982148715918026"><ele>155.83333333333334</ele><time>2026-05-02T12:01:59Z</time></trkpt><trkpt lat="39.64186944516106" lon="8.982104871684598"><ele>154.0</ele><time>2026-05-02T12:02:00Z</time></trkpt><trkpt lat="39.64178687051579" lon="8.982031201735971"><ele>154.0</ele><time>2026-05-02T12:02:01.999Z</time></trkpt><trkpt lat="39.64173378376922" lon="8.981921199359851"><ele>154.0</ele><time>2026-05-02T12:02:03.999Z</time></trkpt><trkpt lat="39.64167053851239" lon="8.981822890060679"><ele>154.0</ele><time>2026-05-02T12:02:05.999Z</time></trkpt><trkpt lat="39.64160539493124" lon="8.981813070920543"><ele>154.0</ele><time>2026-05-02T12:02:07.999Z</time></trkpt><trkpt lat="39.641587496758795" lon="8.98172541809505"><ele>154.0</ele><time>2026-05-02T12:02:11.999Z</time></trkpt><trkpt lat="39.64158723862182" lon="8.981643210286"><ele>154.0</ele><time>2026-05-02T12:02:41.999Z</time></trkpt><trkpt lat="39.641618678015405" lon="8.981558436396808"><ele>153.42857142857142</ele><time>2026-05-02T12:02:47.999Z</time></trkpt><trkpt lat="39.64164116401483" lon="8.981472199108582"><ele>152.85714285714286</ele><time>2026-05-02T12:02:50.999Z</time></trkpt><trkpt lat="39.641668340387525" lon="8.981384356307068"><ele>152.28571428571428</ele><time>2026-05-02T12:02:53.999Z</time></trkpt><trkpt lat="39.6417050779338" lon="8.981301555851635"><ele>151.71428571428572</ele><time>2026-05-02T12:02:56.999Z</time></trkpt><trkpt lat="39.641745049760154" lon="8.981228091369962"><ele>151.14285714285714</ele><time>2026-05-02T12:02:59.999Z</time></trkpt><trkpt lat="39.64178814778577" lon="8.981161889529863"><ele>150.57142857142856</ele><time>2026-05-02T12:03:02.999Z</time></trkpt><trkpt lat="39.6418334137771" lon="8.98109533710401"><ele>150.0</ele><time>2026-05-02T12:03:05.999Z</time></trkpt><trkpt lat="39.641876679435725" lon="8.981008452889432"><ele>150.0</ele><time>2026-05-02T12:03:08.998Z</time></trkpt><trkpt lat="39.64192412410282" lon="8.980916010287856"><ele>150.0</ele><time>2026-05-02T12:03:11.998Z</time></trkpt><trkpt lat="39.64196859276647" lon="8.98082550047707"><ele>150.0</ele><time>2026-05-02T12:03:14.998Z</time></trkpt><trkpt lat="39.64201707491363" lon="8.980749274390266"><ele>150.0</ele><time>2026-05-02T12:03:17.998Z</time></trkpt><trkpt lat="39.6420754697794" lon="8.980690201689212"><ele>150.0</ele><time>2026-05-02T12:03:20.998Z</time></trkpt><trkpt lat="39.64214268862117" lon="8.980637219461734"><ele>150.0</ele><time>2026-05-02T12:04:01Z</time></trkpt><trkpt lat="39.64219020986466" lon="8.980581672914372"><ele>149.85714285714283</ele><time>2026-05-02T12:04:05Z</time></trkpt><trkpt lat="39.64225234850537" lon="8.980525701321188"><ele>149.71428571428572</ele><time>2026-05-02T12:04:18.999Z</time></trkpt><trkpt lat="39.642209255801674" lon="8.980455748634466"><ele>149.57142857142856</ele><time>2026-05-02T12:04:22.999Z</time></trkpt><trkpt lat="39.64212695063166" lon="8.980463439147016"><ele>149.42857142857142</ele><time>2026-05-02T12:04:25.999Z</time></trkpt><trkpt lat="39.64206332739317" lon="8.980463244044463"><ele>149.28571428571428</ele><time>2026-05-02T12:04:28.999Z</time></trkpt><trkpt lat="39.64201991707023" lon="8.980391789768074"><ele>149.14285714285714</ele><time>2026-05-02T12:04:31.999Z</time></trkpt><trkpt lat="39.64198178982728" lon="8.980309537706049"><ele>149.0</ele><time>2026-05-02T12:04:34.999Z</time></trkpt><trkpt lat="39.641942702944604" lon="8.980227713939131"><ele>148.57142857142856</ele><time>2026-05-02T12:04:37.999Z</time></trkpt><trkpt lat="39.64190484445522" lon="8.980159446329905"><ele>148.14285714285714</ele><time>2026-05-02T12:04:40.999Z</time></trkpt><trkpt lat="39.64186721799101" lon="8.980079548432643"><ele>147.71428571428572</ele><time>2026-05-02T12:04:43.999Z</time></trkpt><trkpt lat="39.64182358826787" lon="8.98000959742027"><ele>147.28571428571428</ele><time>2026-05-02T12:04:47.999Z</time></trkpt><trkpt lat="39.64178192416581" lon="8.979943396698843"><ele>146.85714285714286</ele><time>2026-05-02T12:04:50.999Z</time></trkpt><trkpt lat="39.64174318906536" lon="8.979869447766553"><ele>146.42857142857142</ele><time>2026-05-02T12:04:53.999Z</time></trkpt><trkpt lat="39.6417039422181" lon="8.979791441078424"><ele>146.0</ele><time>2026-05-02T12:04:57.999Z</time></trkpt><trkpt lat="39.64166737195467" lon="8.979717481903771"><ele>145.57142857142856</ele><time>2026-05-02T12:05:00.999Z</time></trkpt><trkpt lat="39.641623488363656" lon="8.979652351223878"><ele>145.14285714285714</ele><time>2026-05-02T12:05:03.999Z</time></trkpt><trkpt lat="39.64159381089824" lon="8.979572828182262"><ele>144.71428571428572</ele><time>2026-05-02T12:05:06.999Z</time></trkpt><trkpt lat="39.64155623177372" lon="8.979492659651433"><ele>144.28571428571428</ele><time>2026-05-02T12:05:09.999Z</time></trkpt><trkpt lat="39.64151525682794" lon="8.979419477433165"><ele>143.85714285714286</ele><time>2026-05-02T12:05:12.999Z</time></trkpt><trkpt lat="39.6414751413132" lon="8.979342159231063"><ele>143.42857142857142</ele><time>2026-05-02T12:05:15.999Z</time></trkpt><trkpt lat="39.6414345153101" lon="8.979271884286561"><ele>143.0</ele><time>2026-05-02T12:05:18.999Z</time></trkpt><trkpt lat="39.64139553046515" lon="8.979196670510143"><ele>142.85714285714283</ele><time>2026-05-02T12:05:21.998Z</time></trkpt><trkpt lat="39.641346257999004" lon="8.979135940196185"><ele>142.71428571428572</ele><time>2026-05-02T12:05:24.998Z</time></trkpt><trkpt lat="39.6413003929687" lon="8.979073295109142"><ele>142.57142857142856</ele><time>2026-05-02T12:05:27.998Z</time></trkpt><trkpt lat="39.641243654316206" lon="8.979007807518784"><ele>142.42857142857142</ele><time>2026-05-02T12:05:30.998Z</time></trkpt><trkpt lat="39.641194595538074" lon="8.978925442553287"><ele>142.28571428571428</ele><time>2026-05-02T12:05:33.998Z</time></trkpt><trkpt lat="39.641151881921665" lon="8.97884764627012"><ele>142.14285714285714</ele><time>2026-05-02T12:05:36.998Z</time></trkpt><trkpt lat="39.64111560596973" lon="8.978768334100284"><ele>142.0</ele><time>2026-05-02T12:05:40Z</time></trkpt><trkpt lat="39.64115528353302" lon="8.978834321238427"><ele>142.0</ele><time>2026-05-02T12:23:01Z</time></trkpt><trkpt lat="39.64119587660376" lon="8.978915695187563"><ele>142.0</ele><time>2026-05-02T12:23:11Z</time></trkpt><trkpt lat="39.64124730794455" lon="8.979001629355798"><ele>142.0</ele><time>2026-05-02T12:23:14Z</time></trkpt><trkpt lat="39.64130363433017" lon="8.979061437764074"><ele>142.0</ele><time>2026-05-02T12:23:17Z</time></trkpt><trkpt lat="39.64135413203168" lon="8.979133892034088"><ele>142.0</ele><time>2026-05-02T12:23:20Z</time></trkpt><trkpt lat="39.64141082709417" lon="8.979188521821097"><ele>142.0</ele><time>2026-05-02T12:23:23Z</time></trkpt><trkpt lat="39.64144202903079" lon="8.979273702210246"><ele>142.16666666666669</ele><time>2026-05-02T12:23:25Z</time></trkpt><trkpt lat="39.64146801436131" lon="8.979348541488903"><ele>142.33333333333334</ele><time>2026-05-02T12:23:27Z</time></trkpt><trkpt lat="39.64151551916089" lon="8.979423614244292"><ele>142.5</ele><time>2026-05-02T12:23:29Z</time></trkpt><trkpt lat="39.641555513002096" lon="8.979500654312757"><ele>142.66666666666666</ele><time>2026-05-02T12:23:31Z</time></trkpt><trkpt lat="39.641618983291835" lon="8.979573125734092"><ele>142.83333333333331</ele><time>2026-05-02T12:23:33Z</time></trkpt><trkpt lat="39.64164697976158" lon="8.979669435470507"><ele>143.0</ele><time>2026-05-02T12:23:36Z</time></trkpt><trkpt lat="39.6416967584435" lon="8.97974872229469"><ele>143.0</ele><time>2026-05-02T12:23:39Z</time></trkpt><trkpt lat="39.64173477940538" lon="8.979848280653881"><ele>143.0</ele><time>2026-05-02T12:23:42Z</time></trkpt><trkpt lat="39.64177541057894" lon="8.97992606346468"><ele>143.0</ele><time>2026-05-02T12:23:45Z</time></trkpt><trkpt lat="39.64182809946002" lon="8.980005640164409"><ele>143.0</ele><time>2026-05-02T12:23:48Z</time></trkpt><trkpt lat="39.641887987271886" lon="8.980096230938475"><ele>143.0</ele><time>2026-05-02T12:23:51Z</time></trkpt><trkpt lat="39.6419326389553" lon="8.980179293399127"><ele>143.0</ele><time>2026-05-02T12:23:54Z</time></trkpt><trkpt lat="39.64197325204661" lon="8.980243449722632"><ele>143.85714285714283</ele><time>2026-05-02T12:23:59Z</time></trkpt><trkpt lat="39.642009452406974" lon="8.980314981566437"><ele>144.71428571428572</ele><time>2026-05-02T12:24:04.999Z</time></trkpt><trkpt lat="39.642043677657526" lon="8.980418962726668"><ele>145.57142857142856</ele><time>2026-05-02T12:24:08.999Z</time></trkpt><trkpt lat="39.64208224173506" lon="8.980496438365542"><ele>146.42857142857142</ele><time>2026-05-02T12:24:14.999Z</time></trkpt><trkpt lat="39.6421463421293" lon="8.980509925502169"><ele>147.28571428571428</ele><time>2026-05-02T12:24:16.999Z</time></trkpt><trkpt lat="39.64221007513186" lon="8.980494197537661"><ele>148.14285714285714</ele><time>2026-05-02T12:24:19.999Z</time></trkpt><trkpt lat="39.642211180662436" lon="8.980588069547897"><ele>149.0</ele><time>2026-05-02T12:24:24.999Z</time></trkpt><trkpt lat="39.642162006925275" lon="8.980650156348956"><ele>149.0</ele><time>2026-05-02T12:24:28.999Z</time></trkpt><trkpt lat="39.64210628479971" lon="8.980690751415"><ele>149.0</ele><time>2026-05-02T12:24:31.999Z</time></trkpt><trkpt lat="39.64204593352479" lon="8.98074773017167"><ele>149.0</ele><time>2026-05-02T12:24:36Z</time></trkpt><trkpt lat="39.64199632392042" lon="8.980813039248494"><ele>149.0</ele><time>2026-05-02T12:24:39Z</time></trkpt><trkpt lat="39.64196815736771" lon="8.980889667917637"><ele>149.0</ele><time>2026-05-02T12:24:43Z</time></trkpt><trkpt lat="39.64192080896278" lon="8.98097823229763"><ele>149.0</ele><time>2026-05-02T12:24:46Z</time></trkpt><trkpt lat="39.641869785285685" lon="8.981077693396129"><ele>149.14285714285714</ele><time>2026-05-02T12:24:49Z</time></trkpt><trkpt lat="39.641818148548644" lon="8.981149625030707"><ele>149.28571428571428</ele><time>2026-05-02T12:24:52Z</time></trkpt><trkpt lat="39.64177479585197" lon="8.981213138796264"><ele>149.42857142857142</ele><time>2026-05-02T12:24:55Z</time></trkpt><trkpt lat="39.64172270341103" lon="8.981286386946913"><ele>149.57142857142856</ele><time>2026-05-02T12:24:58Z</time></trkpt><trkpt lat="39.64167836962724" lon="8.981367436738692"><ele>149.71428571428572</ele><time>2026-05-02T12:25:01Z</time></trkpt><trkpt lat="39.64164810958733" lon="8.981446916657209"><ele>149.85714285714283</ele><time>2026-05-02T12:25:04Z</time></trkpt><trkpt lat="39.6416293545436" lon="8.98153135170051"><ele>150.0</ele><time>2026-05-02T12:25:07Z</time></trkpt><trkpt lat="39.64160193855773" lon="8.98162784379089"><ele>150.66666666666666</ele><time>2026-05-02T12:25:11Z</time></trkpt><trkpt lat="39.64158756362415" lon="8.98171656037538"><ele>151.33333333333334</ele><time>2026-05-02T12:25:14Z</time></trkpt><trkpt lat="39.64158536140488" lon="8.981820123325484"><ele>152.0</ele><time>2026-05-02T12:25:17Z</time></trkpt><trkpt lat="39.641548888624925" lon="8.98192069774674"><ele>152.66666666666669</ele><time>2026-05-02T12:25:20Z</time></trkpt><trkpt lat="39.64153501192869" lon="8.982020541456377"><ele>153.33333333333334</ele><time>2026-05-02T12:25:22Z</time></trkpt><trkpt lat="39.641542680487895" lon="8.982150704683002"><ele>154.0</ele><time>2026-05-02T12:25:24Z</time></trkpt><trkpt lat="39.64154613120112" lon="8.982278832133579"><ele>154.0</ele><time>2026-05-02T12:25:26Z</time></trkpt><trkpt lat="39.64154926998606" lon="8.982388733899906"><ele>154.0</ele><time>2026-05-02T12:25:28Z</time></trkpt><trkpt lat="39.64155247768344" lon="8.98250678711165"><ele>154.0</ele><time>2026-05-02T12:25:30Z</time></trkpt><trkpt lat="39.641562098715" lon="8.98263161155719"><ele>154.0</ele><time>2026-05-02T12:25:32Z</time></trkpt><trkpt lat="39.64156328463572" lon="8.982771179220665"><ele>154.0</ele><time>2026-05-02T12:25:34Z</time></trkpt><trkpt lat="39.64155170043075" lon="8.98285822608333"><ele>154.0</ele><time>2026-05-02T12:25:35Z</time></trkpt><trkpt lat="39.641493742070274" lon="8.982967233714012"><ele>155.0</ele><time>2026-05-02T12:25:37Z</time></trkpt><trkpt lat="39.64145958845521" lon="8.983086573548963"><ele>156.0</ele><time>2026-05-02T12:25:39Z</time></trkpt><trkpt lat="39.64141872781492" lon="8.983208622735804"><ele>157.0</ele><time>2026-05-02T12:25:41Z</time></trkpt><trkpt lat="39.641366477507965" lon="8.983338510646695"><ele>158.0</ele><time>2026-05-02T12:25:43Z</time></trkpt><trkpt lat="39.6413162929507" lon="8.983451498521346"><ele>159.0</ele><time>2026-05-02T12:25:45Z</time></trkpt><trkpt lat="39.64125772798497" lon="8.98358335457327"><ele>160.2</ele><time>2026-05-02T12:25:47Z</time></trkpt><trkpt lat="39.64122615762281" lon="8.983656271537802"><ele>161.4</ele><time>2026-05-02T12:25:48Z</time></trkpt><trkpt lat="39.64118362787174" lon="8.983763503047337"><ele>162.6</ele><time>2026-05-02T12:25:50Z</time></trkpt><trkpt lat="39.641139896758325" lon="8.983905263990511"><ele>163.8</ele><time>2026-05-02T12:25:52Z</time></trkpt><trkpt lat="39.641126175236145" lon="8.984022597611002"><ele>165.0</ele><time>2026-05-02T12:25:55Z</time></trkpt><trkpt lat="39.641121980443124" lon="8.984140232069844"><ele>165.4</ele><time>2026-05-02T12:25:56.999Z</time></trkpt><trkpt lat="39.64111039276713" lon="8.984259990040345"><ele>165.8</ele><time>2026-05-02T12:25:58.999Z</time></trkpt><trkpt lat="39.64110286714734" lon="8.984362562755187"><ele>166.2</ele><time>2026-05-02T12:26:00.999Z</time></trkpt><trkpt lat="39.641088043155854" lon="8.984459762767601"><ele>166.6</ele><time>2026-05-02T12:26:02.999Z</time></trkpt><trkpt lat="39.64109429939182" lon="8.984599951577962"><ele>167.0</ele><time>2026-05-02T12:26:04.999Z</time></trkpt><trkpt lat="39.64108213307336" lon="8.984725995312761"><ele>167.0</ele><time>2026-05-02T12:26:07.999Z</time></trkpt><trkpt lat="39.64105703009691" lon="8.984828893093066"><ele>167.0</ele><time>2026-05-02T12:26:09.999Z</time></trkpt><trkpt lat="39.64103368419423" lon="8.9849334782891"><ele>167.0</ele><time>2026-05-02T12:26:13.999Z</time></trkpt><trkpt lat="39.64103138223619" lon="8.985021255583558"><ele>167.0</ele><time>2026-05-02T12:26:47Z</time></trkpt><trkpt lat="39.64100452424156" lon="8.9851075453326"><ele>167.0</ele><time>2026-05-02T12:26:51Z</time></trkpt><trkpt lat="39.640974350618826" lon="8.985198360081817"><ele>167.0</ele><time>2026-05-02T12:26:54Z</time></trkpt><trkpt lat="39.64094691617176" lon="8.98529604127081"><ele>167.66666666666666</ele><time>2026-05-02T12:26:56Z</time></trkpt><trkpt lat="39.6409241078161" lon="8.985396274152246"><ele>168.33333333333331</ele><time>2026-05-02T12:26:58Z</time></trkpt><trkpt lat="39.64089786889672" lon="8.98549673862081"><ele>169.0</ele><time>2026-05-02T12:27:00Z</time></trkpt><trkpt lat="39.64086299924246" lon="8.98558834614849"><ele>169.66666666666666</ele><time>2026-05-02T12:27:03Z</time></trkpt><trkpt lat="39.64082943186556" lon="8.985703055521878"><ele>170.33333333333334</ele><time>2026-05-02T12:27:05Z</time></trkpt><trkpt lat="39.640801776167855" lon="8.98581655676134"><ele>171.0</ele><time>2026-05-02T12:27:07Z</time></trkpt><trkpt lat="39.64076411750982" lon="8.985938997074213"><ele>172.0</ele><time>2026-05-02T12:27:09Z</time></trkpt><trkpt lat="39.640728448161234" lon="8.986044968655076"><ele>173.0</ele><time>2026-05-02T12:27:11Z</time></trkpt><trkpt lat="39.640688137715266" lon="8.986144194466453"><ele>174.0</ele><time>2026-05-02T12:27:13Z</time></trkpt><trkpt lat="39.64062428839413" lon="8.986227273970272"><ele>175.0</ele><time>2026-05-02T12:27:15Z</time></trkpt><trkpt lat="39.64061663941605" lon="8.986309031997328"><ele>176.0</ele><time>2026-05-02T12:27:17Z</time></trkpt><trkpt lat="39.64057054537542" lon="8.986408911752928"><ele>177.0</ele><time>2026-05-02T12:27:19Z</time></trkpt><trkpt lat="39.64053552141614" lon="8.986499301193746"><ele>177.0</ele><time>2026-05-02T12:27:21Z</time></trkpt><trkpt lat="39.64049986482216" lon="8.986603723543118"><ele>177.0</ele><time>2026-05-02T12:27:23Z</time></trkpt><trkpt lat="39.6404639501722" lon="8.986705563628913"><ele>177.0</ele><time>2026-05-02T12:27:25Z</time></trkpt><trkpt lat="39.64044418686064" lon="8.986822049261693"><ele>177.0</ele><time>2026-05-02T12:27:27Z</time></trkpt><trkpt lat="39.640395815197614" lon="8.986944875615471"><ele>177.0</ele><time>2026-05-02T12:27:29Z</time></trkpt><trkpt lat="39.640330020585374" lon="8.98702684926098"><ele>177.6</ele><time>2026-05-02T12:27:31Z</time></trkpt><trkpt lat="39.640297028996585" lon="8.987131287434227"><ele>178.2</ele><time>2026-05-02T12:27:33Z</time></trkpt><trkpt lat="39.64026521950053" lon="8.987235810573447"><ele>178.8</ele><time>2026-05-02T12:27:35Z</time></trkpt><trkpt lat="39.640242907063985" lon="8.98735795710278"><ele>179.4</ele><time>2026-05-02T12:27:37Z</time></trkpt><trkpt lat="39.64023321289986" lon="8.987479535226553"><ele>180.0</ele><time>2026-05-02T12:27:39Z</time></trkpt><trkpt lat="39.64022991516256" lon="8.987615248587003"><ele>180.83333333333334</ele><time>2026-05-02T12:27:41Z</time></trkpt><trkpt lat="39.64023133691001" lon="8.987745638662773"><ele>181.66666666666666</ele><time>2026-05-02T12:27:43Z</time></trkpt><trkpt lat="39.64023424652137" lon="8.987851447774055"><ele>182.5</ele><time>2026-05-02T12:27:45Z</time></trkpt><trkpt lat="39.640232761776566" lon="8.987945204146962"><ele>183.33333333333331</ele><time>2026-05-02T12:27:47Z</time></trkpt><trkpt lat="39.64022593702343" lon="8.988038377565418"><ele>184.16666666666666</ele><time>2026-05-02T12:27:49Z</time></trkpt><trkpt lat="39.64019851550775" lon="8.988147179694613"><ele>185.0</ele><time>2026-05-02T12:27:51Z</time></trkpt><trkpt lat="39.64016683260299" lon="8.988270572521474"><ele>185.5</ele><time>2026-05-02T12:27:52.999Z</time></trkpt><trkpt lat="39.640143473665496" lon="8.988381267457758"><ele>186.0</ele><time>2026-05-02T12:27:54.999Z</time></trkpt><trkpt lat="39.64012303429249" lon="8.988468208826987"><ele>186.5</ele><time>2026-05-02T12:27:56.999Z</time></trkpt><trkpt lat="39.640103236990086" lon="8.988564550836333"><ele>187.0</ele><time>2026-05-02T12:27:58.999Z</time></trkpt><trkpt lat="39.64002530789178" lon="8.988641257623323"><ele>187.5</ele><time>2026-05-02T12:28:00.999Z</time></trkpt><trkpt lat="39.6399115306174" lon="8.988623739208581"><ele>188.0</ele><time>2026-05-02T12:28:01.999Z</time></trkpt><trkpt lat="39.63984828642018" lon="8.988724060788439"><ele>188.0</ele><time>2026-05-02T12:28:03.999Z</time></trkpt><trkpt lat="39.63982330357372" lon="8.988800553215853"><ele>188.0</ele><time>2026-05-02T12:28:04.999Z</time></trkpt><trkpt lat="39.63979368825685" lon="8.988876696156334"><ele>188.0</ele><time>2026-05-02T12:28:05.999Z</time></trkpt><trkpt lat="39.63974123214313" lon="8.989007601370973"><ele>188.0</ele><time>2026-05-02T12:28:07.999Z</time></trkpt><trkpt lat="39.639702285803345" lon="8.989094575450022"><ele>188.0</ele><time>2026-05-02T12:28:09.999Z</time></trkpt><trkpt lat="39.63964772647589" lon="8.989200394635668"><ele>188.0</ele><time>2026-05-02T12:28:11.999Z</time></trkpt><trkpt lat="39.639593105243556" lon="8.989300997751666"><ele>189.60000000000002</ele><time>2026-05-02T12:28:13.999Z</time></trkpt><trkpt lat="39.63953917021447" lon="8.989404350365554"><ele>191.20000000000002</ele><time>2026-05-02T12:28:15.999Z</time></trkpt><trkpt lat="39.63947758732749" lon="8.989529162266733"><ele>192.8</ele><time>2026-05-02T12:28:17.999Z</time></trkpt><trkpt lat="39.639422849217084" lon="8.989664796489356"><ele>194.4</ele><time>2026-05-02T12:28:19.999Z</time></trkpt><trkpt lat="39.63937451245657" lon="8.989806469820413"><ele>196.0</ele><time>2026-05-02T12:28:21.999Z</time></trkpt><trkpt lat="39.63931757472159" lon="8.989948115083687"><ele>196.16666666666666</ele><time>2026-05-02T12:28:23.999Z</time></trkpt><trkpt lat="39.639251626104986" lon="8.990087952655529"><ele>196.33333333333331</ele><time>2026-05-02T12:28:25.999Z</time></trkpt><trkpt lat="39.63921386072118" lon="8.99016597674477"><ele>196.5</ele><time>2026-05-02T12:28:26.999Z</time></trkpt><trkpt lat="39.63917545364818" lon="8.990245326540766"><ele>196.66666666666669</ele><time>2026-05-02T12:28:27.999Z</time></trkpt><trkpt lat="39.639133532600326" lon="8.990325964488239"><ele>196.83333333333334</ele><time>2026-05-02T12:28:28.999Z</time></trkpt><trkpt lat="39.639087094650854" lon="8.990408786283375"><ele>197.0</ele><time>2026-05-02T12:28:29.999Z</time></trkpt><trkpt lat="39.63904052275527" lon="8.990484469765592"><ele>197.00000000000003</ele><time>2026-05-02T12:28:30.999Z</time></trkpt><trkpt lat="39.63899558127264" lon="8.990557954657648"><ele>197.0</ele><time>2026-05-02T12:28:31.999Z</time></trkpt><trkpt lat="39.63895257762774" lon="8.990634895377264"><ele>197.0</ele><time>2026-05-02T12:28:32.999Z</time></trkpt><trkpt lat="39.63889576496588" lon="8.990758832747265"><ele>197.0</ele><time>2026-05-02T12:28:34.999Z</time></trkpt><trkpt lat="39.6388756853882" lon="8.990897457218631"><ele>197.00000000000003</ele><time>2026-05-02T12:28:36.999Z</time></trkpt><trkpt lat="39.63892194780482" lon="8.99098005072597"><ele>197.0</ele><time>2026-05-02T12:28:37.999Z</time></trkpt><trkpt lat="39.63892718700054" lon="8.99112994137526"><ele>199.75</ele><time>2026-05-02T12:28:39.999Z</time></trkpt><trkpt lat="39.638934712182355" lon="8.991276887525647"><ele>202.5</ele><time>2026-05-02T12:28:41.999Z</time></trkpt><trkpt lat="39.63889363604995" lon="8.991421041542687"><ele>205.25</ele><time>2026-05-02T12:28:43.999Z</time></trkpt><trkpt lat="39.63884554141366" lon="8.99156751134814"><ele>208.0</ele><time>2026-05-02T12:28:46Z</time></trkpt><trkpt lat="39.638768104421096" lon="8.991700401147881"><ele>208.0</ele><time>2026-05-02T12:28:48Z</time></trkpt><trkpt lat="39.6387316253389" lon="8.991772616582912"><ele>208.0</ele><time>2026-05-02T12:28:49Z</time></trkpt><trkpt lat="39.63869611931507" lon="8.991850898645465"><ele>208.0</ele><time>2026-05-02T12:28:50Z</time></trkpt><trkpt lat="39.63866024059112" lon="8.991932974762932"><ele>208.0</ele><time>2026-05-02T12:28:51Z</time></trkpt><trkpt lat="39.638624046580354" lon="8.992019040477592"><ele>208.0</ele><time>2026-05-02T12:28:52Z</time></trkpt><trkpt lat="39.63858745032081" lon="8.992107446524546"><ele>208.0</ele><time>2026-05-02T12:28:53Z</time></trkpt><trkpt lat="39.638554238214375" lon="8.992194406011018"><ele>208.0</ele><time>2026-05-02T12:28:54Z</time></trkpt><trkpt lat="39.638522140425636" lon="8.99228174524403"><ele>207.99999999999997</ele><time>2026-05-02T12:28:55Z</time></trkpt><trkpt lat="39.63849117885564" lon="8.992370733503039"><ele>208.0</ele><time>2026-05-02T12:28:56Z</time></trkpt><trkpt lat="39.63846222171489" lon="8.992458106549567"><ele>208.0</ele><time>2026-05-02T12:28:57Z</time></trkpt><trkpt lat="39.63843843048472" lon="8.992549565605387"><ele>208.0</ele><time>2026-05-02T12:28:58Z</time></trkpt><trkpt lat="39.63844193462256" lon="8.992642322904093"><ele>207.99999999999997</ele><time>2026-05-02T12:28:59Z</time></trkpt><trkpt lat="39.63843454153285" lon="8.992783444957457"><ele>208.0</ele><time>2026-05-02T12:29:01Z</time></trkpt><trkpt lat="39.63842083804092" lon="8.992921439345867"><ele>208.8</ele><time>2026-05-02T12:29:03Z</time></trkpt><trkpt lat="39.638423623423066" lon="8.993005367422187"><ele>209.60000000000002</ele><time>2026-05-02T12:29:04Z</time></trkpt><trkpt lat="39.63846351876885" lon="8.993153889271035"><ele>210.39999999999998</ele><time>2026-05-02T12:29:06Z</time></trkpt><trkpt lat="39.638516700263565" lon="8.993274452077403"><ele>211.2</ele><time>2026-05-02T12:29:08Z</time></trkpt><trkpt lat="39.638562154178906" lon="8.993385713719181"><ele>212.0</ele><time>2026-05-02T12:29:10Z</time></trkpt><trkpt lat="39.63859453737605" lon="8.993510188169717"><ele>214.50000000000003</ele><time>2026-05-02T12:29:12Z</time></trkpt><trkpt lat="39.63862494225857" lon="8.993606801887745"><ele>217.0</ele><time>2026-05-02T12:29:14Z</time></trkpt><trkpt lat="39.63864564056223" lon="8.993693631803477"><ele>219.5</ele><time>2026-05-02T12:29:16Z</time></trkpt><trkpt lat="39.63866165124306" lon="8.993813714786073"><ele>222.0</ele><time>2026-05-02T12:29:18Z</time></trkpt><trkpt lat="39.63867308569723" lon="8.993957111084018"><ele>224.50000000000003</ele><time>2026-05-02T12:29:20Z</time></trkpt><trkpt lat="39.638673438933864" lon="8.99404406185999"><ele>227.0</ele><time>2026-05-02T12:29:21Z</time></trkpt><trkpt lat="39.63867220327553" lon="8.994140814240426"><ele>229.39999999999998</ele><time>2026-05-02T12:29:22Z</time></trkpt><trkpt lat="39.63866374890886" lon="8.994296791268374"><ele>231.79999999999998</ele><time>2026-05-02T12:29:24Z</time></trkpt><trkpt lat="39.63865151956515" lon="8.994380503551458"><ele>234.2</ele><time>2026-05-02T12:29:25Z</time></trkpt><trkpt lat="39.638634659113315" lon="8.99447053905681"><ele>236.6</ele><time>2026-05-02T12:29:26Z</time></trkpt><trkpt lat="39.63860596167842" lon="8.99460947156965"><ele>239.0</ele><time>2026-05-02T12:29:28Z</time></trkpt><trkpt lat="39.63857453164832" lon="8.994757397116418"><ele>239.0</ele><time>2026-05-02T12:29:30Z</time></trkpt><trkpt lat="39.63854173401665" lon="8.99490761775658"><ele>238.99999999999997</ele><time>2026-05-02T12:29:32Z</time></trkpt><trkpt lat="39.63850623085687" lon="8.995052187612751"><ele>238.99999999999997</ele><time>2026-05-02T12:29:34Z</time></trkpt><trkpt lat="39.63847423528189" lon="8.995172406774822"><ele>239.0</ele><time>2026-05-02T12:29:36Z</time></trkpt><trkpt lat="39.63844403603538" lon="8.99528090243039"><ele>239.0</ele><time>2026-05-02T12:29:38Z</time></trkpt><trkpt lat="39.63841849612889" lon="8.995368155635608"><ele>240.6</ele><time>2026-05-02T12:29:40Z</time></trkpt><trkpt lat="39.63839491882466" lon="8.995479359056787"><ele>242.2</ele><time>2026-05-02T12:29:43Z</time></trkpt><trkpt lat="39.63833985016557" lon="8.995616900662382"><ele>243.79999999999998</ele><time>2026-05-02T12:29:45Z</time></trkpt><trkpt lat="39.638312402797006" lon="8.995701219478471"><ele>245.39999999999998</ele><time>2026-05-02T12:29:46Z</time></trkpt><trkpt lat="39.63828532313006" lon="8.995784408616874"><ele>247.0</ele><time>2026-05-02T12:29:47Z</time></trkpt><trkpt lat="39.63824516283006" lon="8.995923762404317"><ele>250.2</ele><time>2026-05-02T12:29:49Z</time></trkpt><trkpt lat="39.63819891862461" lon="8.996048468905297"><ele>253.39999999999998</ele><time>2026-05-02T12:29:51Z</time></trkpt><trkpt lat="39.63814002770057" lon="8.996184544385635"><ele>256.6</ele><time>2026-05-02T12:29:53Z</time></trkpt><trkpt lat="39.63808756995487" lon="8.996293222976796"><ele>259.8</ele><time>2026-05-02T12:29:55Z</time></trkpt><trkpt lat="39.63804688196725" lon="8.996373575977456"><ele>263.0</ele><time>2026-05-02T12:29:57Z</time></trkpt><trkpt lat="39.63800546800298" lon="8.996451023421178"><ele>263.0</ele><time>2026-05-02T12:29:58.999Z</time></trkpt><trkpt lat="39.63794592929541" lon="8.996563275896294"><ele>263.0</ele><time>2026-05-02T12:30:00.999Z</time></trkpt><trkpt lat="39.63788692362391" lon="8.9966745233426"><ele>263.0</ele><time>2026-05-02T12:30:02.999Z</time></trkpt><trkpt lat="39.637826814087546" lon="8.996783383985617"><ele>263.0</ele><time>2026-05-02T12:30:04.999Z</time></trkpt><trkpt lat="39.63776098420241" lon="8.996890588401733"><ele>263.0</ele><time>2026-05-02T12:30:06.999Z</time></trkpt><trkpt lat="39.63772135301866" lon="8.996954191330513"><ele>263.42857142857144</ele><time>2026-05-02T12:30:07.999Z</time></trkpt><trkpt lat="39.637681710903166" lon="8.997017811519175"><ele>263.85714285714283</ele><time>2026-05-02T12:30:08.999Z</time></trkpt><trkpt lat="39.63764191400829" lon="8.99708168034632"><ele>264.2857142857143</ele><time>2026-05-02T12:30:09.999Z</time></trkpt><trkpt lat="39.637599099846334" lon="8.997150655592586"><ele>264.7142857142857</ele><time>2026-05-02T12:30:10.999Z</time></trkpt><trkpt lat="39.637556072456974" lon="8.99722149602704"><ele>265.1428571428571</ele><time>2026-05-02T12:30:11.999Z</time></trkpt><trkpt lat="39.63751482186589" lon="8.997290246194094"><ele>265.57142857142856</ele><time>2026-05-02T12:30:12.999Z</time></trkpt><trkpt lat="39.63746940434024" lon="8.997374708791652"><ele>266.0</ele><time>2026-05-02T12:30:14.999Z</time></trkpt><trkpt lat="39.637429459122856" lon="8.997525616368451"><ele>267.0</ele><time>2026-05-02T12:30:16.999Z</time></trkpt><trkpt lat="39.63741350233906" lon="8.997606753740893"><ele>268.0</ele><time>2026-05-02T12:30:17.999Z</time></trkpt><trkpt lat="39.637401423244015" lon="8.997689252678361"><ele>269.0</ele><time>2026-05-02T12:30:18.999Z</time></trkpt><trkpt lat="39.63739850823664" lon="8.997772664921543"><ele>270.0</ele><time>2026-05-02T12:30:19.999Z</time></trkpt><trkpt lat="39.63743016498368" lon="8.99790823698405"><ele>271.0</ele><time>2026-05-02T12:30:21.999Z</time></trkpt><trkpt lat="39.63754244372754" lon="8.997990325066377"><ele>272.0</ele><time>2026-05-02T12:30:23.999Z</time></trkpt><trkpt lat="39.637605230960155" lon="8.998095639291936"><ele>272.0</ele><time>2026-05-02T12:30:25.999Z</time></trkpt><trkpt lat="39.63772854685474" lon="8.998043538713654"><ele>272.0</ele><time>2026-05-02T12:30:30.999Z</time></trkpt><trkpt lat="39.63776421056713" lon="8.997959193330102"><ele>272.0</ele><time>2026-05-02T12:30:31.999Z</time></trkpt><trkpt lat="39.637804826288004" lon="8.997880266841117"><ele>272.0</ele><time>2026-05-02T12:30:32.999Z</time></trkpt><trkpt lat="39.63785362281024" lon="8.997809975446312"><ele>272.0</ele><time>2026-05-02T12:30:33.999Z</time></trkpt><trkpt lat="39.63790753957486" lon="8.99774441856888"><ele>272.0</ele><time>2026-05-02T12:30:34.999Z</time></trkpt><trkpt lat="39.63796364992193" lon="8.997667428463236"><ele>272.33333333333337</ele><time>2026-05-02T12:30:35.999Z</time></trkpt><trkpt lat="39.63801384642665" lon="8.997593879584194"><ele>272.6666666666667</ele><time>2026-05-02T12:30:36.999Z</time></trkpt><trkpt lat="39.6380740339667" lon="8.997524179884845"><ele>273.0</ele><time>2026-05-02T12:30:37.999Z</time></trkpt><trkpt lat="39.63814461641924" lon="8.997466691780682"><ele>273.3333333333333</ele><time>2026-05-02T12:30:38.999Z</time></trkpt><trkpt lat="39.63820812782853" lon="8.997404971827587"><ele>273.66666666666663</ele><time>2026-05-02T12:30:39.999Z</time></trkpt><trkpt lat="39.63827352219454" lon="8.997340470008949"><ele>274.0</ele><time>2026-05-02T12:30:40.999Z</time></trkpt><trkpt lat="39.63834083638059" lon="8.997279747362763"><ele>274.0</ele><time>2026-05-02T12:30:41.999Z</time></trkpt><trkpt lat="39.63840830179668" lon="8.997213919906349"><ele>274.0</ele><time>2026-05-02T12:30:42.999Z</time></trkpt><trkpt lat="39.638474704011635" lon="8.997150465840749"><ele>274.0</ele><time>2026-05-02T12:30:43.999Z</time></trkpt><trkpt lat="39.638536434420644" lon="8.99707289234764"><ele>274.0</ele><time>2026-05-02T12:30:44.999Z</time></trkpt><trkpt lat="39.63860030099495" lon="8.996999058430493"><ele>274.0</ele><time>2026-05-02T12:30:45.999Z</time></trkpt><trkpt lat="39.638656021555114" lon="8.996921835498785"><ele>274.0</ele><time>2026-05-02T12:30:46.999Z</time></trkpt><trkpt lat="39.63869887802665" lon="8.996856236315809"><ele>274.16666666666663</ele><time>2026-05-02T12:30:47.999Z</time></trkpt><trkpt lat="39.63878500281961" lon="8.996753018298662"><ele>274.3333333333333</ele><time>2026-05-02T12:30:49.999Z</time></trkpt><trkpt lat="39.6388450879222" lon="8.996703846937917"><ele>274.5</ele><time>2026-05-02T12:30:51Z</time></trkpt><trkpt lat="39.638907481299086" lon="8.996667232810942"><ele>274.6666666666667</ele><time>2026-05-02T12:30:52Z</time></trkpt><trkpt lat="39.63902037322551" lon="8.996645499582542"><ele>274.83333333333337</ele><time>2026-05-02T12:30:54Z</time></trkpt><trkpt lat="39.63908659872338" lon="8.9966589845592"><ele>275.0</ele><time>2026-05-02T12:30:55Z</time></trkpt><trkpt lat="39.639155815754734" lon="8.996664834485392"><ele>275.0</ele><time>2026-05-02T12:30:56Z</time></trkpt><trkpt lat="39.63922122567591" lon="8.996663587485983"><ele>275.0</ele><time>2026-05-02T12:30:57Z</time></trkpt><trkpt lat="39.63928685782384" lon="8.996658902681391"><ele>275.0</ele><time>2026-05-02T12:30:58Z</time></trkpt><trkpt lat="39.63935177728225" lon="8.996661360442815"><ele>275.0</ele><time>2026-05-02T12:30:59Z</time></trkpt><trkpt lat="39.63941569102868" lon="8.99666240303606"><ele>275.0</ele><time>2026-05-02T12:31:00Z</time></trkpt><trkpt lat="39.63948501629008" lon="8.996667309993171"><ele>275.0</ele><time>2026-05-02T12:31:01Z</time></trkpt><trkpt lat="39.6395625456328" lon="8.996661620227462"><ele>275.0</ele><time>2026-05-02T12:31:02Z</time></trkpt><trkpt lat="39.63963880040656" lon="8.996656871082962"><ele>274.8571428571429</ele><time>2026-05-02T12:31:03Z</time></trkpt><trkpt lat="39.63971236430311" lon="8.996652230623079"><ele>274.7142857142857</ele><time>2026-05-02T12:31:04Z</time></trkpt><trkpt lat="39.639785639696676" lon="8.996655344067603"><ele>274.57142857142856</ele><time>2026-05-02T12:31:05Z</time></trkpt><trkpt lat="39.63985784071197" lon="8.996652201609356"><ele>274.42857142857144</ele><time>2026-05-02T12:31:06Z</time></trkpt><trkpt lat="39.63992980630901" lon="8.996654126782284"><ele>274.2857142857143</ele><time>2026-05-02T12:31:07Z</time></trkpt><trkpt lat="39.63999948252743" lon="8.996651357206803"><ele>274.14285714285717</ele><time>2026-05-02T12:31:08Z</time></trkpt><trkpt lat="39.640073441674836" lon="8.996647070634282"><ele>274.0</ele><time>2026-05-02T12:31:09Z</time></trkpt><trkpt lat="39.64015531662534" lon="8.99663873660405"><ele>274.00000000000006</ele><time>2026-05-02T12:31:10Z</time></trkpt><trkpt lat="39.64023453582883" lon="8.996624994308787"><ele>274.0</ele><time>2026-05-02T12:31:11Z</time></trkpt><trkpt lat="39.64031546183704" lon="8.99662272143332"><ele>274.0</ele><time>2026-05-02T12:31:12Z</time></trkpt><trkpt lat="39.64038816466587" lon="8.996626026591217"><ele>274.0</ele><time>2026-05-02T12:31:13Z</time></trkpt><trkpt lat="39.64045627010195" lon="8.996628925306734"><ele>274.0</ele><time>2026-05-02T12:31:14Z</time></trkpt><trkpt lat="39.64052782039547" lon="8.996627242856324"><ele>274.00000000000006</ele><time>2026-05-02T12:31:15Z</time></trkpt><trkpt lat="39.64060052268526" lon="8.996629459497736"><ele>274.0</ele><time>2026-05-02T12:31:16Z</time></trkpt><trkpt lat="39.640674770560345" lon="8.996629399501556"><ele>273.8333333333333</ele><time>2026-05-02T12:31:17Z</time></trkpt><trkpt lat="39.64073941654646" lon="8.996635631140965"><ele>273.66666666666663</ele><time>2026-05-02T12:31:18Z</time></trkpt><trkpt lat="39.64081124221507" lon="8.996638572372376"><ele>273.5</ele><time>2026-05-02T12:31:19Z</time></trkpt><trkpt lat="39.640877557612825" lon="8.996641138191666"><ele>273.3333333333333</ele><time>2026-05-02T12:31:20Z</time></trkpt><trkpt lat="39.640943790600254" lon="8.996637489022042"><ele>273.1666666666667</ele><time>2026-05-02T12:31:21Z</time></trkpt><trkpt lat="39.64105801566228" lon="8.996634203501113"><ele>273.0</ele><time>2026-05-02T12:31:23Z</time></trkpt><trkpt lat="39.6411508387648" lon="8.996617836339272"><ele>272.8</ele><time>2026-05-02T12:31:25Z</time></trkpt><trkpt lat="39.64126764006441" lon="8.996602887369876"><ele>272.6</ele><time>2026-05-02T12:31:27Z</time></trkpt><trkpt lat="39.641331057130934" lon="8.996606677344955"><ele>272.4</ele><time>2026-05-02T12:31:28Z</time></trkpt><trkpt lat="39.641450658352596" lon="8.996627799961013"><ele>272.2</ele><time>2026-05-02T12:31:30Z</time></trkpt><trkpt lat="39.64156560038427" lon="8.996620750386244"><ele>272.0</ele><time>2026-05-02T12:31:32Z</time></trkpt><trkpt lat="39.641633484315186" lon="8.996620749944631"><ele>272.0</ele><time>2026-05-02T12:31:33Z</time></trkpt><trkpt lat="39.64170294300746" lon="8.996618418274632"><ele>272.0</ele><time>2026-05-02T12:31:34Z</time></trkpt><trkpt lat="39.64176828105803" lon="8.996614515220172"><ele>272.0</ele><time>2026-05-02T12:31:35Z</time></trkpt><trkpt lat="39.6418864257689" lon="8.996614529907037"><ele>272.0</ele><time>2026-05-02T12:31:37Z</time></trkpt><trkpt lat="39.6420080520184" lon="8.996619493193421"><ele>272.0</ele><time>2026-05-02T12:31:39Z</time></trkpt><trkpt lat="39.64212577387369" lon="8.996631320182386"><ele>271.8</ele><time>2026-05-02T12:31:41Z</time></trkpt><trkpt lat="39.64219086390467" lon="8.99662874598724"><ele>271.6</ele><time>2026-05-02T12:31:42Z</time></trkpt><trkpt lat="39.64230974600853" lon="8.996633367019104"><ele>271.40000000000003</ele><time>2026-05-02T12:31:44Z</time></trkpt><trkpt lat="39.64242652471823" lon="8.996645295567625"><ele>271.2</ele><time>2026-05-02T12:31:46Z</time></trkpt><trkpt lat="39.64251375844819" lon="8.996653980861167"><ele>271.0</ele><time>2026-05-02T12:31:48Z</time></trkpt><trkpt lat="39.64257644080609" lon="8.996685673446905"><ele>271.0</ele><time>2026-05-02T12:31:50Z</time></trkpt><trkpt lat="39.642618855818014" lon="8.996767203093444"><ele>271.0</ele><time>2026-05-02T12:31:52Z</time></trkpt><trkpt lat="39.642641024876795" lon="8.996923142173216"><ele>271.0</ele><time>2026-05-02T12:31:54Z</time></trkpt><trkpt lat="39.64264165486328" lon="8.99701097024497"><ele>271.0</ele><time>2026-05-02T12:31:55Z</time></trkpt><trkpt lat="39.64265395722237" lon="8.997107306906033"><ele>271.0</ele><time>2026-05-02T12:31:56Z</time></trkpt><trkpt lat="39.64266386096105" lon="8.99719756508333"><ele>271.0</ele><time>2026-05-02T12:31:57Z</time></trkpt><trkpt lat="39.64266950629424" lon="8.997291817713899"><ele>271.0</ele><time>2026-05-02T12:31:58Z</time></trkpt><trkpt lat="39.642669848405085" lon="8.997404710372177"><ele>271.0</ele><time>2026-05-02T12:31:59Z</time></trkpt><trkpt lat="39.64266086762139" lon="8.997515503847108"><ele>271.0</ele><time>2026-05-02T12:32:00Z</time></trkpt><trkpt lat="39.642667546097414" lon="8.99766214517633"><ele>271.0</ele><time>2026-05-02T12:32:01Z</time></trkpt><trkpt lat="39.64265994624241" lon="8.997842575909816"><ele>271.0</ele><time>2026-05-02T12:32:02Z</time></trkpt><trkpt lat="39.64265849113929" lon="8.998034779209734"><ele>271.25</ele><time>2026-05-02T12:32:03Z</time></trkpt><trkpt lat="39.64266161548898" lon="8.998239049235979"><ele>271.5</ele><time>2026-05-02T12:32:04Z</time></trkpt><trkpt lat="39.64263740779895" lon="8.998420308870882"><ele>271.75</ele><time>2026-05-02T12:32:05Z</time></trkpt><trkpt lat="39.642623419769265" lon="8.998576136239231"><ele>272.0</ele><time>2026-05-02T12:32:06Z</time></trkpt><trkpt lat="39.64260677194621" lon="8.998714439755997"><ele>272.2</ele><time>2026-05-02T12:32:06.999Z</time></trkpt><trkpt lat="39.642598929688894" lon="8.99884257430894"><ele>272.4</ele><time>2026-05-02T12:32:07.999Z</time></trkpt><trkpt lat="39.642594595444265" lon="8.998960678443632"><ele>272.6</ele><time>2026-05-02T12:32:08.999Z</time></trkpt><trkpt lat="39.64259454263585" lon="8.999081130671561"><ele>272.8</ele><time>2026-05-02T12:32:09.999Z</time></trkpt><trkpt lat="39.6425952515382" lon="8.999205481181127"><ele>273.0</ele><time>2026-05-02T12:32:10.999Z</time></trkpt><trkpt lat="39.64260236229832" lon="8.999313253294615"><ele>273.0</ele><time>2026-05-02T12:32:11.999Z</time></trkpt><trkpt lat="39.64260210117151" lon="8.99940865054393"><ele>273.0</ele><time>2026-05-02T12:32:12.999Z</time></trkpt><trkpt lat="39.642606148232716" lon="8.999493629705237"><ele>273.0</ele><time>2026-05-02T12:32:13.999Z</time></trkpt><trkpt lat="39.64260451447752" lon="8.99965071656128"><ele>273.0</ele><time>2026-05-02T12:32:15.999Z</time></trkpt><trkpt lat="39.64259273260629" lon="8.999799851364093"><ele>273.0</ele><time>2026-05-02T12:32:17.999Z</time></trkpt><trkpt lat="39.64261543338509" lon="8.99991283543288"><ele>273.0</ele><time>2026-05-02T12:32:19.999Z</time></trkpt><trkpt lat="39.642616209386524" lon="9.000033216989799"><ele>273.0</ele><time>2026-05-02T12:32:22.999Z</time></trkpt><trkpt lat="39.64261377721357" lon="9.000191884597347"><ele>273.0</ele><time>2026-05-02T12:32:24.999Z</time></trkpt><trkpt lat="39.64254860128419" lon="9.00027628321018"><ele>273.0</ele><time>2026-05-02T12:32:25.999Z</time></trkpt><trkpt lat="39.64250544857169" lon="9.000399809820449"><ele>273.0</ele><time>2026-05-02T12:32:26.999Z</time></trkpt><trkpt lat="39.64243751243913" lon="9.00051551535498"><ele>273.0</ele><time>2026-05-02T12:32:27.999Z</time></trkpt><trkpt lat="39.642372218031866" lon="9.000645010895616"><ele>273.0</ele><time>2026-05-02T12:32:28.999Z</time></trkpt><trkpt lat="39.64230755451355" lon="9.000766104503946"><ele>273.0</ele><time>2026-05-02T12:32:29.999Z</time></trkpt><trkpt lat="39.64225719152566" lon="9.00085666227789"><ele>273.0</ele><time>2026-05-02T12:32:30.999Z</time></trkpt><trkpt lat="39.64217481386451" lon="9.000961844561502"><ele>273.0</ele><time>2026-05-02T12:32:32.999Z</time></trkpt><trkpt lat="39.64205746244464" lon="9.00092255466663"><ele>274.75</ele><time>2026-05-02T12:32:34.999Z</time></trkpt><trkpt lat="39.6419607321257" lon="9.000882932070219"><ele>276.5</ele><time>2026-05-02T12:32:35.999Z</time></trkpt><trkpt lat="39.64185604339642" lon="9.000840726810308"><ele>278.25</ele><time>2026-05-02T12:32:36.999Z</time></trkpt><trkpt lat="39.641731979263234" lon="9.00079951969772"><ele>280.0</ele><time>2026-05-02T12:32:37.999Z</time></trkpt><trkpt lat="39.641593593860414" lon="9.000761625547671"><ele>280.0</ele><time>2026-05-02T12:32:38.999Z</time></trkpt><trkpt lat="39.641428510948394" lon="9.00074148942266"><ele>280.0</ele><time>2026-05-02T12:32:39.999Z</time></trkpt><trkpt lat="39.641267541321824" lon="9.000684988597522"><ele>280.0</ele><time>2026-05-02T12:32:40.999Z</time></trkpt><trkpt lat="39.64109461066862" lon="9.000622169616573"><ele>281.0</ele><time>2026-05-02T12:32:41.999Z</time></trkpt><trkpt lat="39.640926233574405" lon="9.000533943696075"><ele>282.0</ele><time>2026-05-02T12:32:42.999Z</time></trkpt><trkpt lat="39.64077799573969" lon="9.000454025123538"><ele>283.0</ele><time>2026-05-02T12:32:43.999Z</time></trkpt><trkpt lat="39.64064231958594" lon="9.00038371524135"><ele>283.0</ele><time>2026-05-02T12:32:44.999Z</time></trkpt><trkpt lat="39.64050895837315" lon="9.000310317031651"><ele>283.0</ele><time>2026-05-02T12:32:45.999Z</time></trkpt><trkpt lat="39.640353317307905" lon="9.00021350920187"><ele>283.0</ele><time>2026-05-02T12:32:46.999Z</time></trkpt><trkpt lat="39.64015586283574" lon="9.00008864777652"><ele>283.0</ele><time>2026-05-02T12:32:47.999Z</time></trkpt><trkpt lat="39.63993497029362" lon="8.9999690577194"><ele>283.0</ele><time>2026-05-02T12:32:48.999Z</time></trkpt><trkpt lat="39.639711265334725" lon="8.999809012218403"><ele>283.0</ele><time>2026-05-02T12:32:49.999Z</time></trkpt><trkpt lat="39.63951615391397" lon="8.999690278745847"><ele>283.0</ele><time>2026-05-02T12:32:50.999Z</time></trkpt><trkpt lat="39.63934206761123" lon="8.99959457461079"><ele>283.0</ele><time>2026-05-02T12:32:51.999Z</time></trkpt><trkpt lat="39.63917837904814" lon="8.999514085424678"><ele>282.3333333333333</ele><time>2026-05-02T12:32:52.999Z</time></trkpt><trkpt lat="39.63902442696779" lon="8.999443771230528"><ele>281.6666666666667</ele><time>2026-05-02T12:32:53.999Z</time></trkpt><trkpt lat="39.63887746760666" lon="8.999376894415036"><ele>281.0</ele><time>2026-05-02T12:32:54.999Z</time></trkpt><trkpt lat="39.63873930129931" lon="8.999316391248373"><ele>280.75</ele><time>2026-05-02T12:32:55.999Z</time></trkpt><trkpt lat="39.63860281143193" lon="8.999258122794965"><ele>280.5</ele><time>2026-05-02T12:32:57Z</time></trkpt><trkpt lat="39.638472951132115" lon="8.99920606436995"><ele>280.25</ele><time>2026-05-02T12:32:58Z</time></trkpt><trkpt lat="39.63835242314259" lon="8.999159462647642"><ele>280.0</ele><time>2026-05-02T12:32:59Z</time></trkpt><trkpt lat="39.63823662774545" lon="8.999114690777906"><ele>280.4</ele><time>2026-05-02T12:33:00Z</time></trkpt><trkpt lat="39.63813008778645" lon="8.999067353792094"><ele>280.8</ele><time>2026-05-02T12:33:01Z</time></trkpt><trkpt lat="39.638025312049514" lon="8.999034174830355"><ele>281.2</ele><time>2026-05-02T12:33:02Z</time></trkpt><trkpt lat="39.637915384387796" lon="8.999036459144746"><ele>281.6</ele><time>2026-05-02T12:33:03Z</time></trkpt><trkpt lat="39.63780660712737" lon="8.999034538836248"><ele>282.0</ele><time>2026-05-02T12:33:04Z</time></trkpt><trkpt lat="39.6376986731848" lon="8.999040818389338"><ele>281.0</ele><time>2026-05-02T12:33:05Z</time></trkpt><trkpt lat="39.63758833168481" lon="8.999061297659152"><ele>280.0</ele><time>2026-05-02T12:33:06Z</time></trkpt><trkpt lat="39.63747363851993" lon="8.999072111544692"><ele>279.0</ele><time>2026-05-02T12:33:07Z</time></trkpt><trkpt lat="39.637354617656975" lon="8.999101600889157"><ele>278.0</ele><time>2026-05-02T12:33:08Z</time></trkpt><trkpt lat="39.637230685160404" lon="8.99913958892896"><ele>278.0</ele><time>2026-05-02T12:33:09Z</time></trkpt><trkpt lat="39.63710163394233" lon="8.999176025166578"><ele>278.0</ele><time>2026-05-02T12:33:10Z</time></trkpt><trkpt lat="39.636965546934626" lon="8.999196916347021"><ele>278.0</ele><time>2026-05-02T12:33:11Z</time></trkpt><trkpt lat="39.63682890632977" lon="8.99918908895749"><ele>278.0</ele><time>2026-05-02T12:33:12Z</time></trkpt><trkpt lat="39.63669730591229" lon="8.999158177642236"><ele>276.6666666666667</ele><time>2026-05-02T12:33:13Z</time></trkpt><trkpt lat="39.63655716204298" lon="8.999110018937719"><ele>275.3333333333333</ele><time>2026-05-02T12:33:14Z</time></trkpt><trkpt lat="39.63640970928137" lon="8.999046886837968"><ele>274.0</ele><time>2026-05-02T12:33:15Z</time></trkpt><trkpt lat="39.636253008126864" lon="8.998977946392648"><ele>274.3333333333333</ele><time>2026-05-02T12:33:16Z</time></trkpt><trkpt lat="39.636096393690686" lon="8.998918741006808"><ele>274.6666666666667</ele><time>2026-05-02T12:33:17Z</time></trkpt><trkpt lat="39.635937476671174" lon="8.998880869817082"><ele>275.0</ele><time>2026-05-02T12:33:18Z</time></trkpt><trkpt lat="39.635777588717474" lon="8.998833448232112"><ele>275.0</ele><time>2026-05-02T12:33:19Z</time></trkpt><trkpt lat="39.63560875643369" lon="8.998806223489787"><ele>275.0</ele><time>2026-05-02T12:33:20Z</time></trkpt><trkpt lat="39.63543968460091" lon="8.99875146853603"><ele>275.0</ele><time>2026-05-02T12:33:21Z</time></trkpt><trkpt lat="39.6352632087793" lon="8.998713378092262"><ele>275.0</ele><time>2026-05-02T12:33:22Z</time></trkpt><trkpt lat="39.635087194042846" lon="8.998676184025042"><ele>275.0</ele><time>2026-05-02T12:33:23Z</time></trkpt><trkpt lat="39.63491274567795" lon="8.998659758393654"><ele>275.0</ele><time>2026-05-02T12:33:24Z</time></trkpt><trkpt lat="39.6347463193143" lon="8.998606426942311"><ele>275.0</ele><time>2026-05-02T12:33:25Z</time></trkpt><trkpt lat="39.634576063722015" lon="8.998638151799366"><ele>275.0</ele><time>2026-05-02T12:33:26Z</time></trkpt><trkpt lat="39.63441266902669" lon="8.998665997892983"><ele>275.0</ele><time>2026-05-02T12:33:27Z</time></trkpt><trkpt lat="39.63426274678517" lon="8.99866799927754"><ele>275.33333333333337</ele><time>2026-05-02T12:33:28Z</time></trkpt><trkpt lat="39.63412164321163" lon="8.998654473448726"><ele>275.6666666666667</ele><time>2026-05-02T12:33:29Z</time></trkpt><trkpt lat="39.633974305363814" lon="8.998606500720442"><ele>276.0</ele><time>2026-05-02T12:33:30Z</time></trkpt><trkpt lat="39.633821659598794" lon="8.998541507311469"><ele>276.0</ele><time>2026-05-02T12:33:31Z</time></trkpt><trkpt lat="39.63366604015342" lon="8.998471949371092"><ele>276.0</ele><time>2026-05-02T12:33:32Z</time></trkpt><trkpt lat="39.633521053650924" lon="8.998392418165421"><ele>276.0</ele><time>2026-05-02T12:33:33Z</time></trkpt><trkpt lat="39.63338099273643" lon="8.998292436655749"><ele>277.3333333333333</ele><time>2026-05-02T12:33:34Z</time></trkpt><trkpt lat="39.633245628721575" lon="8.998182887645646"><ele>278.66666666666663</ele><time>2026-05-02T12:33:35Z</time></trkpt><trkpt lat="39.63313373634019" lon="8.998045822048798"><ele>280.0</ele><time>2026-05-02T12:33:36Z</time></trkpt><trkpt lat="39.63303070182215" lon="8.997881076542729"><ele>280.0</ele><time>2026-05-02T12:33:37Z</time></trkpt><trkpt lat="39.632931648000365" lon="8.997711745232465"><ele>280.0</ele><time>2026-05-02T12:33:38Z</time></trkpt><trkpt lat="39.63283073751253" lon="8.99753454975632"><ele>280.0</ele><time>2026-05-02T12:33:39Z</time></trkpt><trkpt lat="39.63272990292495" lon="8.997354648492724"><ele>281.66666666666663</ele><time>2026-05-02T12:33:40Z</time></trkpt><trkpt lat="39.63263375976786" lon="8.997165908741502"><ele>283.3333333333333</ele><time>2026-05-02T12:33:41Z</time></trkpt><trkpt lat="39.63254537854928" lon="8.996973196925566"><ele>285.0</ele><time>2026-05-02T12:33:42Z</time></trkpt><trkpt lat="39.6324616414357" lon="8.996768058582711"><ele>285.3333333333333</ele><time>2026-05-02T12:33:43Z</time></trkpt><trkpt lat="39.63237856760496" lon="8.996553269507475"><ele>285.66666666666663</ele><time>2026-05-02T12:33:44Z</time></trkpt><trkpt lat="39.63228640131549" lon="8.996333215207258"><ele>286.0</ele><time>2026-05-02T12:33:45Z</time></trkpt><trkpt lat="39.632185362770805" lon="8.99611998182191"><ele>286.0</ele><time>2026-05-02T12:33:46Z</time></trkpt><trkpt lat="39.63209016380079" lon="8.995897574821754"><ele>286.0</ele><time>2026-05-02T12:33:47Z</time></trkpt><trkpt lat="39.63200015987531" lon="8.995671088899412"><ele>286.0</ele><time>2026-05-02T12:33:48Z</time></trkpt><trkpt lat="39.63189585102422" lon="8.995479652187425"><ele>287.5</ele><time>2026-05-02T12:33:49Z</time></trkpt><trkpt lat="39.63181805343905" lon="8.99528651814839"><ele>289.0</ele><time>2026-05-02T12:33:50Z</time></trkpt><trkpt lat="39.63174455800672" lon="8.995137686835102"><ele>290.5</ele><time>2026-05-02T12:33:51Z</time></trkpt><trkpt lat="39.63166616547409" lon="8.995014457753243"><ele>292.0</ele><time>2026-05-02T12:33:52Z</time></trkpt><trkpt lat="39.63160803851616" lon="8.994890971487411"><ele>292.5</ele><time>2026-05-02T12:33:53Z</time></trkpt><trkpt lat="39.631558578765116" lon="8.994780814155234"><ele>293.0</ele><time>2026-05-02T12:33:54Z</time></trkpt><trkpt lat="39.631507375674076" lon="8.994672886268493"><ele>293.5</ele><time>2026-05-02T12:33:55Z</time></trkpt><trkpt lat="39.63146945315461" lon="8.99457602270182"><ele>294.0</ele><time>2026-05-02T12:33:56Z</time></trkpt><trkpt lat="39.63143229915307" lon="8.994486659855216"><ele>294.5</ele><time>2026-05-02T12:33:57Z</time></trkpt><trkpt lat="39.631397079633004" lon="8.994413272034398"><ele>295.0</ele><time>2026-05-02T12:33:58Z</time></trkpt><trkpt lat="39.63135051808851" lon="8.994351197447175"><ele>295.0</ele><time>2026-05-02T12:33:59Z</time></trkpt><trkpt lat="39.63129632516174" lon="8.9942188927558"><ele>295.0</ele><time>2026-05-02T12:34:01Z</time></trkpt><trkpt lat="39.63123096294415" lon="8.994113861782173"><ele>295.0</ele><time>2026-05-02T12:34:03Z</time></trkpt><trkpt lat="39.631151673444684" lon="8.99400533492631"><ele>295.0</ele><time>2026-05-02T12:34:05Z</time></trkpt><trkpt lat="39.631093026208525" lon="8.993946036122203"><ele>295.0</ele><time>2026-05-02T12:34:07Z</time></trkpt><trkpt lat="39.63107436560203" lon="8.993778933735275"><ele>295.0</ele><time>2026-05-02T12:34:10Z</time></trkpt><trkpt lat="39.63109650830006" lon="8.994078255377302"><ele>295.0</ele><time>2026-05-02T12:34:11Z</time></trkpt><trkpt lat="39.6311876060585" lon="8.994129030099012"><ele>295.0</ele><time>2026-05-02T12:34:12.999Z</time></trkpt><trkpt lat="39.631256810695" lon="8.994254414473032"><ele>295.0</ele><time>2026-05-02T12:34:14.999Z</time></trkpt><trkpt lat="39.6312943953181" lon="8.994325270530375"><ele>295.0</ele><time>2026-05-02T12:34:15.999Z</time></trkpt><trkpt lat="39.631333173076285" lon="8.994403091925811"><ele>295.0</ele><time>2026-05-02T12:34:16.999Z</time></trkpt><trkpt lat="39.63137731690237" lon="8.994484048825413"><ele>295.0</ele><time>2026-05-02T12:34:17.999Z</time></trkpt><trkpt lat="39.63142512051455" lon="8.994577415478345"><ele>295.0</ele><time>2026-05-02T12:34:18.999Z</time></trkpt><trkpt lat="39.63147052556827" lon="8.994672150696049"><ele>295.0</ele><time>2026-05-02T12:34:19.999Z</time></trkpt><trkpt lat="39.631518009763084" lon="8.994774109367189"><ele>295.0</ele><time>2026-05-02T12:34:20.999Z</time></trkpt><trkpt lat="39.63156713441236" lon="8.994878753536144"><ele>295.0</ele><time>2026-05-02T12:34:21.999Z</time></trkpt><trkpt lat="39.63162652324694" lon="8.994994449969637"><ele>295.0</ele><time>2026-05-02T12:34:22.999Z</time></trkpt><trkpt lat="39.631690331634196" lon="8.995115154290875"><ele>295.0</ele><time>2026-05-02T12:34:23.999Z</time></trkpt><trkpt lat="39.63174613825419" lon="8.995246809884373"><ele>295.0</ele><time>2026-05-02T12:34:24.999Z</time></trkpt><trkpt lat="39.63180826188897" lon="8.995381581231507"><ele>294.25</ele><time>2026-05-02T12:34:25.999Z</time></trkpt><trkpt lat="39.63187730743062" lon="8.995513666106888"><ele>293.5</ele><time>2026-05-02T12:34:26.999Z</time></trkpt><trkpt lat="39.631953150081515" lon="8.99565346049275"><ele>292.75</ele><time>2026-05-02T12:34:27.999Z</time></trkpt><trkpt lat="39.632028420126375" lon="8.9958021409785"><ele>292.0</ele><time>2026-05-02T12:34:28.999Z</time></trkpt><trkpt lat="39.63210198226266" lon="8.995964801862037"><ele>290.0</ele><time>2026-05-02T12:34:29.999Z</time></trkpt><trkpt lat="39.63217455837984" lon="8.996135084901972"><ele>288.0</ele><time>2026-05-02T12:34:30.999Z</time></trkpt><trkpt lat="39.6322511455327" lon="8.996309407031397"><ele>286.0</ele><time>2026-05-02T12:34:31.999Z</time></trkpt><trkpt lat="39.632315665810744" lon="8.996484834153389"><ele>286.0</ele><time>2026-05-02T12:34:32.999Z</time></trkpt><trkpt lat="39.632376942986106" lon="8.996660752032987"><ele>286.0</ele><time>2026-05-02T12:34:33.999Z</time></trkpt><trkpt lat="39.6324406893122" lon="8.996826071753553"><ele>286.0</ele><time>2026-05-02T12:34:34.999Z</time></trkpt><trkpt lat="39.63250594142651" lon="8.996987512685164"><ele>286.0</ele><time>2026-05-02T12:34:35.999Z</time></trkpt><trkpt lat="39.63257390331975" lon="8.99714701772226"><ele>285.75</ele><time>2026-05-02T12:34:36.999Z</time></trkpt><trkpt lat="39.63265865450968" lon="8.997298967669426"><ele>285.5</ele><time>2026-05-02T12:34:37.999Z</time></trkpt><trkpt lat="39.63274721043165" lon="8.997453073909725"><ele>285.25</ele><time>2026-05-02T12:34:38.999Z</time></trkpt><trkpt lat="39.63283330885766" lon="8.997608369744519"><ele>285.0</ele><time>2026-05-02T12:34:39.999Z</time></trkpt><trkpt lat="39.63291276142745" lon="8.99775673154099"><ele>283.75</ele><time>2026-05-02T12:34:40.999Z</time></trkpt><trkpt lat="39.632994488430626" lon="8.99789713907069"><ele>282.5</ele><time>2026-05-02T12:34:41.999Z</time></trkpt><trkpt lat="39.63307360997392" lon="8.998030036546702"><ele>281.25</ele><time>2026-05-02T12:34:42.999Z</time></trkpt><trkpt lat="39.63315945867187" lon="8.998151519721633"><ele>280.0</ele><time>2026-05-02T12:34:43.999Z</time></trkpt><trkpt lat="39.633265509621054" lon="8.998255963537947"><ele>279.75</ele><time>2026-05-02T12:34:44.999Z</time></trkpt><trkpt lat="39.63338368787449" lon="8.998346704862138"><ele>279.5</ele><time>2026-05-02T12:34:45.999Z</time></trkpt><trkpt lat="39.63351069923852" lon="8.998431656516551"><ele>279.25</ele><time>2026-05-02T12:34:46.999Z</time></trkpt><trkpt lat="39.63363915872838" lon="8.998508904586135"><ele>279.0</ele><time>2026-05-02T12:34:47.999Z</time></trkpt><trkpt lat="39.633776543654555" lon="8.99857323494159"><ele>278.25</ele><time>2026-05-02T12:34:48.999Z</time></trkpt><trkpt lat="39.633915957309135" lon="8.998629809040537"><ele>277.5</ele><time>2026-05-02T12:34:49.999Z</time></trkpt><trkpt lat="39.63406016619014" lon="8.998674042767634"><ele>276.75</ele><time>2026-05-02T12:34:50.999Z</time></trkpt><trkpt lat="39.63421040767365" lon="8.998697143450652"><ele>276.0</ele><time>2026-05-02T12:34:51.999Z</time></trkpt><trkpt lat="39.634371797009614" lon="8.9986915545265"><ele>275.6666666666667</ele><time>2026-05-02T12:34:52.999Z</time></trkpt><trkpt lat="39.63453625198379" lon="8.998659370766035"><ele>275.33333333333337</ele><time>2026-05-02T12:34:53.999Z</time></trkpt><trkpt lat="39.63470605822563" lon="8.998653870960894"><ele>275.0</ele><time>2026-05-02T12:34:54.999Z</time></trkpt><trkpt lat="39.63487848123332" lon="8.998674177993825"><ele>275.0</ele><time>2026-05-02T12:34:55.999Z</time></trkpt><trkpt lat="39.63505668615888" lon="8.998714237078023"><ele>275.0</ele><time>2026-05-02T12:34:56.999Z</time></trkpt><trkpt lat="39.63524138544896" lon="8.998753675305338"><ele>275.0</ele><time>2026-05-02T12:34:57.999Z</time></trkpt><trkpt lat="39.63543111172948" lon="8.998789489848535"><ele>275.0</ele><time>2026-05-02T12:34:58.999Z</time></trkpt><trkpt lat="39.63561705716313" lon="8.998827281403953"><ele>275.0</ele><time>2026-05-02T12:34:59.999Z</time></trkpt><trkpt lat="39.635798264769825" lon="8.99886878735415"><ele>275.0</ele><time>2026-05-02T12:35:00.999Z</time></trkpt><trkpt lat="39.635964300515354" lon="8.998909203283212"><ele>275.0</ele><time>2026-05-02T12:35:01.999Z</time></trkpt><trkpt lat="39.63611246017166" lon="8.998962072675022"><ele>275.0</ele><time>2026-05-02T12:35:03Z</time></trkpt><trkpt lat="39.636253568108714" lon="8.999025465559686"><ele>275.0</ele><time>2026-05-02T12:35:04Z</time></trkpt><trkpt lat="39.636387846382235" lon="8.999083865864888"><ele>275.0</ele><time>2026-05-02T12:35:05Z</time></trkpt><trkpt lat="39.63651630107753" lon="8.999126613880875"><ele>275.75</ele><time>2026-05-02T12:35:06Z</time></trkpt><trkpt lat="39.63664086890542" lon="8.999181530739545"><ele>276.5</ele><time>2026-05-02T12:35:07Z</time></trkpt><trkpt lat="39.63676581084392" lon="8.999230503405794"><ele>277.25</ele><time>2026-05-02T12:35:08Z</time></trkpt><trkpt lat="39.6368939390808" lon="8.999253399563827"><ele>278.0</ele><time>2026-05-02T12:35:09Z</time></trkpt><trkpt lat="39.63702693045405" lon="8.999250964533116"><ele>278.0</ele><time>2026-05-02T12:35:10Z</time></trkpt><trkpt lat="39.637161995257" lon="8.999221126110886"><ele>278.0</ele><time>2026-05-02T12:35:11Z</time></trkpt><trkpt lat="39.637297739847774" lon="8.999172350496"><ele>278.0</ele><time>2026-05-02T12:35:12Z</time></trkpt><trkpt lat="39.63743464923731" lon="8.999133455670828"><ele>278.0</ele><time>2026-05-02T12:35:13Z</time></trkpt><trkpt lat="39.637571908533886" lon="8.99909895340356"><ele>278.0</ele><time>2026-05-02T12:35:14Z</time></trkpt><trkpt lat="39.637703492446065" lon="8.999072883352706"><ele>278.0</ele><time>2026-05-02T12:35:15Z</time></trkpt><trkpt lat="39.63782598336958" lon="8.999063376923074"><ele>278.0</ele><time>2026-05-02T12:35:16Z</time></trkpt><trkpt lat="39.637935910362664" lon="8.999060451121508"><ele>278.0</ele><time>2026-05-02T12:35:17Z</time></trkpt><trkpt lat="39.63803373599733" lon="8.999073023198665"><ele>278.4</ele><time>2026-05-02T12:35:18Z</time></trkpt><trkpt lat="39.63812647871195" lon="8.999099008112465"><ele>278.8</ele><time>2026-05-02T12:35:19Z</time></trkpt><trkpt lat="39.63822272628432" lon="8.999141910777062"><ele>279.2</ele><time>2026-05-02T12:35:20Z</time></trkpt><trkpt lat="39.638323987922554" lon="8.999199344560067"><ele>279.6</ele><time>2026-05-02T12:35:21Z</time></trkpt><trkpt lat="39.63842302356339" lon="8.999240319999176"><ele>280.0</ele><time>2026-05-02T12:35:22Z</time></trkpt><trkpt lat="39.638528318865" lon="8.99926320547623"><ele>280.0</ele><time>2026-05-02T12:35:23Z</time></trkpt><trkpt lat="39.638632377804754" lon="8.999297025942512"><ele>280.0</ele><time>2026-05-02T12:35:24Z</time></trkpt><trkpt lat="39.63873402353707" lon="8.999359583175625"><ele>280.0</ele><time>2026-05-02T12:35:25Z</time></trkpt><trkpt lat="39.63884720685521" lon="8.99940914626479"><ele>280.0</ele><time>2026-05-02T12:35:26Z</time></trkpt><trkpt lat="39.63896166976039" lon="8.999460839504675"><ele>280.25</ele><time>2026-05-02T12:35:27Z</time></trkpt><trkpt lat="39.63908080685469" lon="8.999499071444143"><ele>280.5</ele><time>2026-05-02T12:35:28Z</time></trkpt><trkpt lat="39.63919002599514" lon="8.999574344924264"><ele>280.75</ele><time>2026-05-02T12:35:29Z</time></trkpt><trkpt lat="39.63930664085495" lon="8.999635099045275"><ele>281.0</ele><time>2026-05-02T12:35:30Z</time></trkpt><trkpt lat="39.639413784706775" lon="8.999693114973466"><ele>281.5</ele><time>2026-05-02T12:35:31Z</time></trkpt><trkpt lat="39.639519757347834" lon="8.999748447538472"><ele>282.0</ele><time>2026-05-02T12:35:32Z</time></trkpt><trkpt lat="39.63962777305862" lon="8.999809681288955"><ele>282.5</ele><time>2026-05-02T12:35:33Z</time></trkpt><trkpt lat="39.63973836694726" lon="8.99987768219491"><ele>283.0</ele><time>2026-05-02T12:35:34Z</time></trkpt><trkpt lat="39.63984191004799" lon="8.99995063875878"><ele>283.0</ele><time>2026-05-02T12:35:35Z</time></trkpt><trkpt lat="39.63995525267492" lon="9.000020971009516"><ele>283.0</ele><time>2026-05-02T12:35:36Z</time></trkpt><trkpt lat="39.640071359628" lon="9.000091972311639"><ele>283.0</ele><time>2026-05-02T12:35:37Z</time></trkpt><trkpt lat="39.64018471762596" lon="9.00016421374371"><ele>283.0</ele><time>2026-05-02T12:35:38Z</time></trkpt><trkpt lat="39.64028968232515" lon="9.000230204452517"><ele>283.0</ele><time>2026-05-02T12:35:39Z</time></trkpt><trkpt lat="39.64039152482949" lon="9.00029311298574"><ele>283.0</ele><time>2026-05-02T12:35:40Z</time></trkpt><trkpt lat="39.64047634171148" lon="9.000348920359073"><ele>283.0</ele><time>2026-05-02T12:35:41Z</time></trkpt><trkpt lat="39.640562010273" lon="9.00040112368296"><ele>283.0</ele><time>2026-05-02T12:35:42Z</time></trkpt><trkpt lat="39.640645629519014" lon="9.000443623290867"><ele>283.0</ele><time>2026-05-02T12:35:43Z</time></trkpt><trkpt lat="39.64073072078899" lon="9.000478935268983"><ele>283.0</ele><time>2026-05-02T12:35:44Z</time></trkpt><trkpt lat="39.64081485617019" lon="9.000521974400268"><ele>283.0</ele><time>2026-05-02T12:35:45Z</time></trkpt><trkpt lat="39.64091504005246" lon="9.000562830478867"><ele>283.0</ele><time>2026-05-02T12:35:46Z</time></trkpt><trkpt lat="39.64101394521643" lon="9.000620575024428"><ele>283.0</ele><time>2026-05-02T12:35:47Z</time></trkpt><trkpt lat="39.641099176474654" lon="9.000672972904438"><ele>283.0</ele><time>2026-05-02T12:35:48Z</time></trkpt><trkpt lat="39.64121007689616" lon="9.000695175307543"><ele>282.4</ele><time>2026-05-02T12:35:49Z</time></trkpt><trkpt lat="39.64131721928783" lon="9.000724248446748"><ele>281.8</ele><time>2026-05-02T12:35:50Z</time></trkpt><trkpt lat="39.64142241810657" lon="9.00075690597931"><ele>281.2</ele><time>2026-05-02T12:35:51Z</time></trkpt><trkpt lat="39.64152699061254" lon="9.000780638401746"><ele>280.6</ele><time>2026-05-02T12:35:52Z</time></trkpt><trkpt lat="39.64161770799935" lon="9.000802393974322"><ele>280.0</ele><time>2026-05-02T12:35:53Z</time></trkpt><trkpt lat="39.64170707250081" lon="9.000828329457851"><ele>280.0</ele><time>2026-05-02T12:35:54Z</time></trkpt><trkpt lat="39.64179105302142" lon="9.00085655904403"><ele>280.0</ele><time>2026-05-02T12:35:55Z</time></trkpt><trkpt lat="39.64186710845114" lon="9.000889509111865"><ele>280.0</ele><time>2026-05-02T12:35:56Z</time></trkpt><trkpt lat="39.64193933874173" lon="9.000920780402675"><ele>280.0</ele><time>2026-05-02T12:35:57Z</time></trkpt><trkpt lat="39.642044610638855" lon="9.000969638753466"><ele>280.0</ele><time>2026-05-02T12:35:59Z</time></trkpt><trkpt lat="39.64211257077903" lon="9.001015707138372"><ele>280.0</ele><time>2026-05-02T12:36:02Z</time></trkpt><trkpt lat="39.64218793126825" lon="9.001055284981124"><ele>279.4</ele><time>2026-05-02T12:36:06Z</time></trkpt><trkpt lat="39.642315252669704" lon="9.001066583965189"><ele>278.8</ele><time>2026-05-02T12:36:08Z</time></trkpt><trkpt lat="39.64239589242885" lon="9.001097345961126"><ele>278.2</ele><time>2026-05-02T12:36:09Z</time></trkpt><trkpt lat="39.6424738305538" lon="9.001129846093853"><ele>277.6</ele><time>2026-05-02T12:36:10Z</time></trkpt><trkpt lat="39.64255680996003" lon="9.001187119489344"><ele>277.0</ele><time>2026-05-02T12:36:11Z</time></trkpt><trkpt lat="39.642638149240454" lon="9.00122333413256"><ele>277.0</ele><time>2026-05-02T12:36:12Z</time></trkpt><trkpt lat="39.64272238778783" lon="9.001260682676888"><ele>277.0</ele><time>2026-05-02T12:36:12.999Z</time></trkpt><trkpt lat="39.642803466253504" lon="9.001296635781578"><ele>277.0</ele><time>2026-05-02T12:36:13.999Z</time></trkpt><trkpt lat="39.6428879728337" lon="9.001312272319737"><ele>277.0</ele><time>2026-05-02T12:36:14.999Z</time></trkpt><trkpt lat="39.64297223528571" lon="9.001355253328594"><ele>277.0</ele><time>2026-05-02T12:36:15.999Z</time></trkpt><trkpt lat="39.64306316077192" lon="9.001413639067708"><ele>277.6</ele><time>2026-05-02T12:36:16.999Z</time></trkpt><trkpt lat="39.64315061745945" lon="9.001465181810326"><ele>278.2</ele><time>2026-05-02T12:36:17.999Z</time></trkpt><trkpt lat="39.64324101633874" lon="9.00150282699087"><ele>278.8</ele><time>2026-05-02T12:36:18.999Z</time></trkpt><trkpt lat="39.64333136835988" lon="9.001528856421185"><ele>279.4</ele><time>2026-05-02T12:36:19.999Z</time></trkpt><trkpt lat="39.64342601563353" lon="9.001534727686389"><ele>280.0</ele><time>2026-05-02T12:36:20.999Z</time></trkpt><trkpt lat="39.64352023954353" lon="9.00153489852397"><ele>280.0</ele><time>2026-05-02T12:36:21.999Z</time></trkpt><trkpt lat="39.643610038485065" lon="9.001546063898289"><ele>280.0</ele><time>2026-05-02T12:36:22.999Z</time></trkpt><trkpt lat="39.64371043724941" lon="9.001562268590776"><ele>280.0</ele><time>2026-05-02T12:36:23.999Z</time></trkpt><trkpt lat="39.64378697795653" lon="9.001582846338767"><ele>280.0</ele><time>2026-05-02T12:36:24.999Z</time></trkpt><trkpt lat="39.64386740050737" lon="9.001628317990185"><ele>280.0</ele><time>2026-05-02T12:36:25.999Z</time></trkpt><trkpt lat="39.64395112964888" lon="9.001672370002792"><ele>280.0</ele><time>2026-05-02T12:36:26.999Z</time></trkpt><trkpt lat="39.64403481318934" lon="9.001712511703593"><ele>280.8</ele><time>2026-05-02T12:36:27.999Z</time></trkpt><trkpt lat="39.644111670044566" lon="9.001758014472463"><ele>281.6</ele><time>2026-05-02T12:36:28.999Z</time></trkpt><trkpt lat="39.64418613379553" lon="9.001792721997848"><ele>282.4</ele><time>2026-05-02T12:36:29.999Z</time></trkpt><trkpt lat="39.64427334585491" lon="9.001826923319236"><ele>283.2</ele><time>2026-05-02T12:36:30.999Z</time></trkpt><trkpt lat="39.644375686471854" lon="9.00185901438517"><ele>284.0</ele><time>2026-05-02T12:36:31.999Z</time></trkpt><trkpt lat="39.64447801910189" lon="9.001862861766629"><ele>284.0</ele><time>2026-05-02T12:36:32.999Z</time></trkpt><trkpt lat="39.644562075462616" lon="9.00186063883271"><ele>284.0</ele><time>2026-05-02T12:36:33.999Z</time></trkpt><trkpt lat="39.6446407379309" lon="9.001868328381736"><ele>284.0</ele><time>2026-05-02T12:36:34.999Z</time></trkpt><trkpt lat="39.644710007354064" lon="9.001900565770722"><ele>284.0</ele><time>2026-05-02T12:36:35.999Z</time></trkpt><trkpt lat="39.64479091267765" lon="9.001902307827471"><ele>284.0</ele><time>2026-05-02T12:36:36.999Z</time></trkpt><trkpt lat="39.644896040089016" lon="9.00189719733828"><ele>284.0</ele><time>2026-05-02T12:36:38.999Z</time></trkpt><trkpt lat="39.64497901528922" lon="9.001934018889258"><ele>284.0</ele><time>2026-05-02T12:36:40.999Z</time></trkpt><trkpt lat="39.64502778551021" lon="9.001989605213765"><ele>284.0</ele><time>2026-05-02T12:36:42.999Z</time></trkpt><trkpt lat="39.64509183416426" lon="9.00201423838696"><ele>284.0</ele><time>2026-05-02T12:36:46.999Z</time></trkpt><trkpt lat="39.64519824663246" lon="9.00185804188594"><ele>284.0</ele><time>2026-05-02T12:36:49.999Z</time></trkpt><trkpt lat="39.645235204639235" lon="9.001777099552783"><ele>284.0</ele><time>2026-05-02T12:36:50.999Z</time></trkpt><trkpt lat="39.645268052447875" lon="9.001694168985477"><ele>284.0</ele><time>2026-05-02T12:36:51.999Z</time></trkpt><trkpt lat="39.645303855066466" lon="9.00160562920134"><ele>284.5</ele><time>2026-05-02T12:36:52.999Z</time></trkpt><trkpt lat="39.64535203975621" lon="9.001508833472515"><ele>285.0</ele><time>2026-05-02T12:36:53.999Z</time></trkpt><trkpt lat="39.64539763652172" lon="9.001435600267705"><ele>285.5</ele><time>2026-05-02T12:36:54.999Z</time></trkpt><trkpt lat="39.645451195510155" lon="9.001367582188413"><ele>286.0</ele><time>2026-05-02T12:36:55.999Z</time></trkpt><trkpt lat="39.64552174724812" lon="9.00129401936442"><ele>286.5</ele><time>2026-05-02T12:36:56.999Z</time></trkpt><trkpt lat="39.64559067841659" lon="9.001216569745152"><ele>287.0</ele><time>2026-05-02T12:36:57.999Z</time></trkpt><trkpt lat="39.645655781683594" lon="9.001136193231801"><ele>287.0</ele><time>2026-05-02T12:36:58.999Z</time></trkpt><trkpt lat="39.64572620883196" lon="9.001055277473117"><ele>287.0</ele><time>2026-05-02T12:36:59.999Z</time></trkpt><trkpt lat="39.645811159088005" lon="9.000954229540959"><ele>287.0</ele><time>2026-05-02T12:37:00.999Z</time></trkpt><trkpt lat="39.64589895984285" lon="9.0008457286766"><ele>287.0</ele><time>2026-05-02T12:37:01.999Z</time></trkpt><trkpt lat="39.646021715788685" lon="9.000716974412372"><ele>287.33333333333337</ele><time>2026-05-02T12:37:02.999Z</time></trkpt><trkpt lat="39.64615480177207" lon="9.000561704494483"><ele>287.6666666666667</ele><time>2026-05-02T12:37:03.999Z</time></trkpt><trkpt lat="39.64628519455497" lon="9.000392809511093"><ele>288.0</ele><time>2026-05-02T12:37:04.999Z</time></trkpt><trkpt lat="39.64638689190077" lon="9.00023086937698"><ele>288.0</ele><time>2026-05-02T12:37:05.999Z</time></trkpt><trkpt lat="39.64643738799637" lon="9.000095050277057"><ele>288.0</ele><time>2026-05-02T12:37:06.999Z</time></trkpt><trkpt lat="39.646492597582665" lon="8.99999819795505"><ele>288.0</ele><time>2026-05-02T12:37:07.999Z</time></trkpt><trkpt lat="39.64652232123678" lon="8.999910428419373"><ele>288.0</ele><time>2026-05-02T12:37:09Z</time></trkpt><trkpt lat="39.64656225512768" lon="8.99983252828427"><ele>288.0</ele><time>2026-05-02T12:37:10Z</time></trkpt><trkpt lat="39.64661880011068" lon="8.999692380428906"><ele>288.0</ele><time>2026-05-02T12:37:12Z</time></trkpt><trkpt lat="39.64664396936884" lon="8.999609440579665"><ele>288.0</ele><time>2026-05-02T12:37:14Z</time></trkpt><trkpt lat="39.64675086989557" lon="8.999655886195134"><ele>288.0</ele><time>2026-05-02T12:37:19Z</time></trkpt><trkpt lat="39.646818795523046" lon="8.999685617959322"><ele>288.0</ele><time>2026-05-02T12:37:20Z</time></trkpt><trkpt lat="39.64687581685826" lon="8.999737536943092"><ele>288.0</ele><time>2026-05-02T12:37:21Z</time></trkpt><trkpt lat="39.646930790202546" lon="8.999782408939287"><ele>288.0</ele><time>2026-05-02T12:37:22Z</time></trkpt><trkpt lat="39.64698084444646" lon="8.999832310678746"><ele>287.8</ele><time>2026-05-02T12:37:23Z</time></trkpt><trkpt lat="39.64706030233027" lon="8.999923736938822"><ele>287.6</ele><time>2026-05-02T12:37:25Z</time></trkpt><trkpt lat="39.64712150761498" lon="9.00000402757017"><ele>287.4</ele><time>2026-05-02T12:37:27Z</time></trkpt><trkpt lat="39.6471346024521" lon="9.000135798720532"><ele>287.2</ele><time>2026-05-02T12:37:31Z</time></trkpt><trkpt lat="39.64717725658503" lon="9.00022239816595"><ele>287.0</ele><time>2026-05-02T12:37:32Z</time></trkpt><trkpt lat="39.64720773921344" lon="9.000325060219048"><ele>287.0</ele><time>2026-05-02T12:37:33Z</time></trkpt><trkpt lat="39.647253275374545" lon="9.000428466339237"><ele>287.0</ele><time>2026-05-02T12:37:34Z</time></trkpt><trkpt lat="39.647292733510085" lon="9.000519090491531"><ele>287.0</ele><time>2026-05-02T12:37:35Z</time></trkpt><trkpt lat="39.64732347587711" lon="9.000591478383067"><ele>287.0</ele><time>2026-05-02T12:37:36Z</time></trkpt><trkpt lat="39.64738393611206" lon="9.000716281843852"><ele>287.0</ele><time>2026-05-02T12:37:38Z</time></trkpt><trkpt lat="39.64735262725044" lon="9.000811044835174"><ele>287.0</ele><time>2026-05-02T12:37:40Z</time></trkpt><trkpt lat="39.647328796546326" lon="9.000887346645957"><ele>286.6</ele><time>2026-05-02T12:37:43Z</time></trkpt><trkpt lat="39.64726447984892" lon="9.000835169395417"><ele>286.2</ele><time>2026-05-02T12:37:44Z</time></trkpt><trkpt lat="39.64717247005055" lon="9.000844983598643"><ele>285.8</ele><time>2026-05-02T12:37:46Z</time></trkpt><trkpt lat="39.64712416836988" lon="9.001053964305164"><ele>285.4</ele><time>2026-05-02T12:37:48Z</time></trkpt><trkpt lat="39.64715326610835" lon="9.001168796513054"><ele>285.0</ele><time>2026-05-02T12:37:49Z</time></trkpt><trkpt lat="39.647201238384454" lon="9.001246452624867"><ele>285.0</ele><time>2026-05-02T12:37:50Z</time></trkpt><trkpt lat="39.64722492965153" lon="9.001341132219563"><ele>285.0</ele><time>2026-05-02T12:37:51Z</time></trkpt><trkpt lat="39.6472555953717" lon="9.001437657865843"><ele>285.0</ele><time>2026-05-02T12:37:52Z</time></trkpt><trkpt lat="39.647286109023916" lon="9.001534776999936"><ele>285.0</ele><time>2026-05-02T12:37:53Z</time></trkpt><trkpt lat="39.64731610468995" lon="9.001626985404487"><ele>285.0</ele><time>2026-05-02T12:37:54Z</time></trkpt><trkpt lat="39.64734440650862" lon="9.001709801538322"><ele>285.0</ele><time>2026-05-02T12:37:55Z</time></trkpt><trkpt lat="39.64737204492228" lon="9.0017857875312"><ele>285.0</ele><time>2026-05-02T12:37:56Z</time></trkpt><trkpt lat="39.64740460544391" lon="9.001871981698025"><ele>284.85714285714283</ele><time>2026-05-02T12:37:57Z</time></trkpt><trkpt lat="39.647435949633106" lon="9.00195008779522"><ele>284.7142857142857</ele><time>2026-05-02T12:37:58Z</time></trkpt><trkpt lat="39.647467818730796" lon="9.002023294657429"><ele>284.57142857142856</ele><time>2026-05-02T12:37:59Z</time></trkpt><trkpt lat="39.64750332754798" lon="9.002100895349725"><ele>284.42857142857144</ele><time>2026-05-02T12:38:00Z</time></trkpt><trkpt lat="39.647539004443495" lon="9.002178042883294"><ele>284.2857142857143</ele><time>2026-05-02T12:38:01Z</time></trkpt><trkpt lat="39.647579558282615" lon="9.002264535592053"><ele>284.1428571428571</ele><time>2026-05-02T12:38:02Z</time></trkpt><trkpt lat="39.647627969980256" lon="9.002363703432051"><ele>284.0</ele><time>2026-05-02T12:38:03Z</time></trkpt><trkpt lat="39.6476773952126" lon="9.00246446891956"><ele>283.83333333333337</ele><time>2026-05-02T12:38:04Z</time></trkpt><trkpt lat="39.64772897742223" lon="9.002568734392007"><ele>283.6666666666667</ele><time>2026-05-02T12:38:05Z</time></trkpt><trkpt lat="39.64779493478889" lon="9.002661756276824"><ele>283.5</ele><time>2026-05-02T12:38:06Z</time></trkpt><trkpt lat="39.647844609664546" lon="9.002754815358909"><ele>283.3333333333333</ele><time>2026-05-02T12:38:07Z</time></trkpt><trkpt lat="39.64788132816751" lon="9.002846571559408"><ele>283.16666666666663</ele><time>2026-05-02T12:38:08Z</time></trkpt><trkpt lat="39.647915884513125" lon="9.002933137314763"><ele>283.0</ele><time>2026-05-02T12:38:09Z</time></trkpt><trkpt lat="39.647944618556124" lon="9.003033999410961"><ele>283.0</ele><time>2026-05-02T12:38:10Z</time></trkpt><trkpt lat="39.647973815433176" lon="9.00315122710456"><ele>283.0</ele><time>2026-05-02T12:38:11Z</time></trkpt><trkpt lat="39.648004495230204" lon="9.003255064836445"><ele>283.0</ele><time>2026-05-02T12:38:12Z</time></trkpt><trkpt lat="39.64803115689872" lon="9.003350977059814"><ele>283.0</ele><time>2026-05-02T12:38:13Z</time></trkpt><trkpt lat="39.64805316368709" lon="9.003443033079996"><ele>283.0</ele><time>2026-05-02T12:38:14Z</time></trkpt><trkpt lat="39.64807615301002" lon="9.003539734105491"><ele>283.0</ele><time>2026-05-02T12:38:15Z</time></trkpt><trkpt lat="39.64808221972978" lon="9.003649895018382"><ele>283.75</ele><time>2026-05-02T12:38:16Z</time></trkpt><trkpt lat="39.64812710251352" lon="9.003776566273034"><ele>284.5</ele><time>2026-05-02T12:38:16.999Z</time></trkpt><trkpt lat="39.648158111445134" lon="9.00394180599177"><ele>285.25</ele><time>2026-05-02T12:38:17.999Z</time></trkpt><trkpt lat="39.64819204073114" lon="9.004138842822352"><ele>286.0</ele><time>2026-05-02T12:38:18.999Z</time></trkpt><trkpt lat="39.64821029801506" lon="9.00435735708873"><ele>286.0</ele><time>2026-05-02T12:38:19.999Z</time></trkpt><trkpt lat="39.64820505288731" lon="9.004588813233914"><ele>286.0</ele><time>2026-05-02T12:38:20.999Z</time></trkpt><trkpt lat="39.64821827098913" lon="9.00480803183802"><ele>286.0</ele><time>2026-05-02T12:38:21.999Z</time></trkpt><trkpt lat="39.64820725078692" lon="9.00499066683459"><ele>286.40000000000003</ele><time>2026-05-02T12:38:22.999Z</time></trkpt><trkpt lat="39.64820248723034" lon="9.005156612657276"><ele>286.8</ele><time>2026-05-02T12:38:23.999Z</time></trkpt><trkpt lat="39.648190549108456" lon="9.005300250746082"><ele>287.20000000000005</ele><time>2026-05-02T12:38:24.999Z</time></trkpt><trkpt lat="39.648178766005145" lon="9.005437047155894"><ele>287.6</ele><time>2026-05-02T12:38:25.999Z</time></trkpt><trkpt lat="39.64815423710595" lon="9.005565332487253"><ele>288.0</ele><time>2026-05-02T12:38:26.999Z</time></trkpt><trkpt lat="39.6481291166437" lon="9.005673613777445"><ele>288.0</ele><time>2026-05-02T12:38:27.999Z</time></trkpt><trkpt lat="39.648095683850336" lon="9.005811226872234"><ele>288.0</ele><time>2026-05-02T12:38:29.999Z</time></trkpt><trkpt lat="39.64806982810588" lon="9.005889024786377"><ele>288.0</ele><time>2026-05-02T12:38:31.999Z</time></trkpt><trkpt lat="39.64814561522991" lon="9.005975553971707"><ele>288.0</ele><time>2026-05-02T12:38:32.999Z</time></trkpt><trkpt lat="39.64818794844421" lon="9.00604128297575"><ele>288.0</ele><time>2026-05-02T12:38:33.999Z</time></trkpt><trkpt lat="39.648238463844336" lon="9.006149134766375"><ele>288.0</ele><time>2026-05-02T12:38:35.999Z</time></trkpt><trkpt lat="39.6484016881965" lon="9.006075024176736"><ele>288.25</ele><time>2026-05-02T12:38:37.999Z</time></trkpt><trkpt lat="39.64847861569424" lon="9.005996842982233"><ele>288.5</ele><time>2026-05-02T12:38:38.999Z</time></trkpt><trkpt lat="39.64857633556981" lon="9.005917518049717"><ele>288.75</ele><time>2026-05-02T12:38:39.999Z</time></trkpt><trkpt lat="39.64869002480761" lon="9.005831442206334"><ele>289.0</ele><time>2026-05-02T12:38:40.999Z</time></trkpt><trkpt lat="39.64881799687474" lon="9.005750567689752"><ele>287.0</ele><time>2026-05-02T12:38:41.999Z</time></trkpt><trkpt lat="39.64894261803535" lon="9.00563168053391"><ele>285.0</ele><time>2026-05-02T12:38:42.999Z</time></trkpt><trkpt lat="39.64908312739274" lon="9.005537966030998"><ele>283.0</ele><time>2026-05-02T12:38:43.999Z</time></trkpt><trkpt lat="39.64921131085399" lon="9.00543517875688"><ele>283.0</ele><time>2026-05-02T12:38:44.999Z</time></trkpt><trkpt lat="39.64931241897236" lon="9.005325085569732"><ele>283.0</ele><time>2026-05-02T12:38:45.999Z</time></trkpt><trkpt lat="39.64940568117616" lon="9.005242294048946"><ele>283.0</ele><time>2026-05-02T12:38:46.999Z</time></trkpt><trkpt lat="39.649491149326394" lon="9.005141511461067"><ele>283.0</ele><time>2026-05-02T12:38:47.999Z</time></trkpt><trkpt lat="39.649572206990925" lon="9.005027347703265"><ele>281.75</ele><time>2026-05-02T12:38:48.999Z</time></trkpt><trkpt lat="39.649637939197476" lon="9.004902285981348"><ele>280.5</ele><time>2026-05-02T12:38:49.999Z</time></trkpt><trkpt lat="39.6496963458738" lon="9.004769960060726"><ele>279.25</ele><time>2026-05-02T12:38:50.999Z</time></trkpt><trkpt lat="39.64976220834296" lon="9.004620471274135"><ele>278.0</ele><time>2026-05-02T12:38:51.999Z</time></trkpt><trkpt lat="39.64982049589755" lon="9.004483650008622"><ele>278.0</ele><time>2026-05-02T12:38:52.999Z</time></trkpt><trkpt lat="39.64987714590519" lon="9.004349584786539"><ele>278.0</ele><time>2026-05-02T12:38:53.999Z</time></trkpt><trkpt lat="39.64994635731342" lon="9.004231098946207"><ele>278.0</ele><time>2026-05-02T12:38:54.999Z</time></trkpt><trkpt lat="39.6499991983757" lon="9.004118770894694"><ele>278.0</ele><time>2026-05-02T12:38:55.999Z</time></trkpt><trkpt lat="39.65005448255008" lon="9.00402031438225"><ele>278.0</ele><time>2026-05-02T12:38:56.999Z</time></trkpt><trkpt lat="39.65012979174389" lon="9.00394162827316"><ele>277.75</ele><time>2026-05-02T12:38:57.999Z</time></trkpt><trkpt lat="39.650197354342595" lon="9.003823367701793"><ele>277.5</ele><time>2026-05-02T12:38:58.999Z</time></trkpt><trkpt lat="39.65027810338084" lon="9.003703266347344"><ele>277.25</ele><time>2026-05-02T12:38:59.999Z</time></trkpt><trkpt lat="39.650351569162964" lon="9.003588335574296"><ele>277.0</ele><time>2026-05-02T12:39:00.999Z</time></trkpt><trkpt lat="39.650418668066614" lon="9.003488584563788"><ele>277.0</ele><time>2026-05-02T12:39:01.999Z</time></trkpt><trkpt lat="39.65048283239368" lon="9.00337382347644"><ele>277.0</ele><time>2026-05-02T12:39:02.999Z</time></trkpt><trkpt lat="39.65053764520065" lon="9.003272236349828"><ele>277.0</ele><time>2026-05-02T12:39:03.999Z</time></trkpt><trkpt lat="39.650591450879666" lon="9.003193167488996"><ele>277.0</ele><time>2026-05-02T12:39:04.999Z</time></trkpt><trkpt lat="39.650647436461405" lon="9.003112338236685"><ele>277.0</ele><time>2026-05-02T12:39:05.999Z</time></trkpt><trkpt lat="39.65070202134738" lon="9.00304256620034"><ele>277.0</ele><time>2026-05-02T12:39:06.999Z</time></trkpt><trkpt lat="39.650758981518734" lon="9.002969793181204"><ele>276.8333333333333</ele><time>2026-05-02T12:39:07.999Z</time></trkpt><trkpt lat="39.65081350211993" lon="9.002901188905899"><ele>276.66666666666663</ele><time>2026-05-02T12:39:08.999Z</time></trkpt><trkpt lat="39.65087737487977" lon="9.002853264320146"><ele>276.5</ele><time>2026-05-02T12:39:09.999Z</time></trkpt><trkpt lat="39.6509285656925" lon="9.002794826029485"><ele>276.3333333333333</ele><time>2026-05-02T12:39:10.999Z</time></trkpt><trkpt lat="39.65100191360549" lon="9.002715974388314"><ele>276.1666666666667</ele><time>2026-05-02T12:39:12.999Z</time></trkpt><trkpt lat="39.65105153615847" lon="9.00266543966148"><ele>276.0</ele><time>2026-05-02T12:39:16Z</time></trkpt><trkpt lat="39.65095532354647" lon="9.00251242677188"><ele>275.0</ele><time>2026-05-02T12:39:18Z</time></trkpt><trkpt lat="39.65090160107168" lon="9.002443910861814"><ele>274.0</ele><time>2026-05-02T12:39:19Z</time></trkpt><trkpt lat="39.65084559763186" lon="9.002395858287002"><ele>273.0</ele><time>2026-05-02T12:39:20Z</time></trkpt><trkpt lat="39.65078132418686" lon="9.002374340169707"><ele>272.0</ele><time>2026-05-02T12:39:21Z</time></trkpt><trkpt lat="39.650718784780835" lon="9.002340794069072"><ele>271.0</ele><time>2026-05-02T12:39:22Z</time></trkpt><trkpt lat="39.65064830874404" lon="9.002311222262518"><ele>270.0</ele><time>2026-05-02T12:39:23Z</time></trkpt><trkpt lat="39.65057223690904" lon="9.002251294690195"><ele>269.0</ele><time>2026-05-02T12:39:24Z</time></trkpt><trkpt lat="39.65045946051305" lon="9.002194595237139"><ele>269.0</ele><time>2026-05-02T12:39:25Z</time></trkpt><trkpt lat="39.65033236545915" lon="9.002130696934499"><ele>269.0</ele><time>2026-05-02T12:39:26Z</time></trkpt><trkpt lat="39.65023184984838" lon="9.002079865889922"><ele>269.0</ele><time>2026-05-02T12:39:27Z</time></trkpt><trkpt lat="39.65014280986407" lon="9.002034746610319"><ele>269.0</ele><time>2026-05-02T12:39:28Z</time></trkpt><trkpt lat="39.650073336143755" lon="9.001999522437153"><ele>269.0</ele><time>2026-05-02T12:39:29Z</time></trkpt><trkpt lat="39.65001413993497" lon="9.00196910564631"><ele>268.2</ele><time>2026-05-02T12:39:30Z</time></trkpt><trkpt lat="39.64991648143779" lon="9.001903504113594"><ele>267.4</ele><time>2026-05-02T12:39:32Z</time></trkpt><trkpt lat="39.64985314890704" lon="9.001857350256726"><ele>266.6</ele><time>2026-05-02T12:39:34Z</time></trkpt><trkpt lat="39.649922013384284" lon="9.001671421386671"><ele>265.8</ele><time>2026-05-02T12:39:35Z</time></trkpt><trkpt lat="39.64992843967405" lon="9.001578508670214"><ele>265.0</ele><time>2026-05-02T12:39:36Z</time></trkpt><trkpt lat="39.64993464890729" lon="9.001482325721721"><ele>264.6</ele><time>2026-05-02T12:39:37Z</time></trkpt><trkpt lat="39.64992328670327" lon="9.001390984373174"><ele>264.2</ele><time>2026-05-02T12:39:38Z</time></trkpt><trkpt lat="39.649949959067364" lon="9.001316808403464"><ele>263.8</ele><time>2026-05-02T12:39:39Z</time></trkpt><trkpt lat="39.64995772358116" lon="9.001200694165087"><ele>263.4</ele><time>2026-05-02T12:39:41Z</time></trkpt><trkpt lat="39.650153575305666" lon="9.001068988890776"><ele>263.0</ele><time>2026-05-02T12:39:44Z</time></trkpt><trkpt lat="39.650207616086306" lon="9.00100384850708"><ele>263.0</ele><time>2026-05-02T12:39:45Z</time></trkpt><trkpt lat="39.65026776410594" lon="9.000937320776602"><ele>263.0</ele><time>2026-05-02T12:39:46Z</time></trkpt><trkpt lat="39.65033068490304" lon="9.000868542009043"><ele>263.0</ele><time>2026-05-02T12:39:47Z</time></trkpt><trkpt lat="39.65038872857757" lon="9.00079494504859"><ele>263.0</ele><time>2026-05-02T12:39:48Z</time></trkpt><trkpt lat="39.65044313601481" lon="9.000729417233787"><ele>263.0</ele><time>2026-05-02T12:39:49Z</time></trkpt><trkpt lat="39.650531223301044" lon="9.00063469132493"><ele>263.0</ele><time>2026-05-02T12:39:51Z</time></trkpt><trkpt lat="39.65058630700464" lon="9.000538084162818"><ele>262.33333333333337</ele><time>2026-05-02T12:39:53Z</time></trkpt><trkpt lat="39.65067082051298" lon="9.000447182752474"><ele>261.6666666666667</ele><time>2026-05-02T12:39:55Z</time></trkpt><trkpt lat="39.65073030931161" lon="9.000405706412023"><ele>261.0</ele><time>2026-05-02T12:39:56Z</time></trkpt><trkpt lat="39.65079465506679" lon="9.000372484806288"><ele>260.3333333333333</ele><time>2026-05-02T12:39:57Z</time></trkpt><trkpt lat="39.650850035631684" lon="9.000330542398743"><ele>259.66666666666663</ele><time>2026-05-02T12:39:58Z</time></trkpt><trkpt lat="39.65092757951028" lon="9.000260979813651"><ele>259.0</ele><time>2026-05-02T12:40:00Z</time></trkpt><trkpt lat="39.65100968693236" lon="9.000179537591242"><ele>259.0</ele><time>2026-05-02T12:40:02Z</time></trkpt><trkpt lat="39.651094000669055" lon="9.000098389879629"><ele>259.0</ele><time>2026-05-02T12:40:04Z</time></trkpt><trkpt lat="39.65118695231799" lon="9.000027595195576"><ele>259.0</ele><time>2026-05-02T12:40:06Z</time></trkpt><trkpt lat="39.65126172100889" lon="8.999961092125796"><ele>259.0</ele><time>2026-05-02T12:40:08Z</time></trkpt><trkpt lat="39.65133980259102" lon="8.999900349537342"><ele>259.0</ele><time>2026-05-02T12:40:10Z</time></trkpt><trkpt lat="39.651429617555046" lon="8.999837887370093"><ele>258.2</ele><time>2026-05-02T12:40:12Z</time></trkpt><trkpt lat="39.651517386221855" lon="8.999775855655773"><ele>257.4</ele><time>2026-05-02T12:40:13.999Z</time></trkpt><trkpt lat="39.65158967677224" lon="8.999708550385915"><ele>256.6</ele><time>2026-05-02T12:40:15.999Z</time></trkpt><trkpt lat="39.65167315032384" lon="8.999635976553359"><ele>255.8</ele><time>2026-05-02T12:40:17.999Z</time></trkpt><trkpt lat="39.65176206882497" lon="8.999583951121604"><ele>255.0</ele><time>2026-05-02T12:40:19.999Z</time></trkpt><trkpt lat="39.65185120801824" lon="8.999528892308623"><ele>255.0</ele><time>2026-05-02T12:40:21.999Z</time></trkpt><trkpt lat="39.65193632835739" lon="8.999484238649053"><ele>255.0</ele><time>2026-05-02T12:40:23.999Z</time></trkpt><trkpt lat="39.65202229644428" lon="8.999439969838239"><ele>255.0</ele><time>2026-05-02T12:40:25.999Z</time></trkpt><trkpt lat="39.652116322892354" lon="8.99939964592751"><ele>255.0</ele><time>2026-05-02T12:40:27.999Z</time></trkpt><trkpt lat="39.65219915837049" lon="8.999362340114136"><ele>255.0</ele><time>2026-05-02T12:40:29.999Z</time></trkpt><trkpt lat="39.65227381225992" lon="8.999328141869155"><ele>254.83333333333334</ele><time>2026-05-02T12:40:31.999Z</time></trkpt><trkpt lat="39.65235849322586" lon="8.99925975505052"><ele>254.66666666666669</ele><time>2026-05-02T12:40:33.999Z</time></trkpt><trkpt lat="39.65242422268008" lon="8.999198350118071"><ele>254.5</ele><time>2026-05-02T12:40:35.999Z</time></trkpt><trkpt lat="39.652492926891995" lon="8.999130134089294"><ele>254.33333333333334</ele><time>2026-05-02T12:40:37.999Z</time></trkpt><trkpt lat="39.65255795471746" lon="8.999109553002604"><ele>254.16666666666669</ele><time>2026-05-02T12:40:41.999Z</time></trkpt><trkpt lat="39.65247740704739" lon="8.999148421598022"><ele>254.0</ele><time>2026-05-02T12:40:48.999Z</time></trkpt><trkpt lat="39.6524287776863" lon="8.999203429960623"><ele>254.00000000000003</ele><time>2026-05-02T12:40:49.999Z</time></trkpt><trkpt lat="39.6523394554108" lon="8.999278266036335"><ele>254.0</ele><time>2026-05-02T12:40:51.999Z</time></trkpt><trkpt lat="39.65226244229925" lon="8.999350845927657"><ele>254.0</ele><time>2026-05-02T12:40:53.999Z</time></trkpt><trkpt lat="39.6521684002827" lon="8.999411680906565"><ele>254.0</ele><time>2026-05-02T12:40:55.999Z</time></trkpt><trkpt lat="39.65209896916527" lon="8.999431969065675"><ele>254.00000000000003</ele><time>2026-05-02T12:40:56.999Z</time></trkpt><trkpt lat="39.65203282795991" lon="8.999452546292305"><ele>254.0</ele><time>2026-05-02T12:40:57.999Z</time></trkpt><trkpt lat="39.65191080751461" lon="8.999518363359515"><ele>254.2</ele><time>2026-05-02T12:40:59.999Z</time></trkpt><trkpt lat="39.65179391788834" lon="8.999560306576006"><ele>254.39999999999998</ele><time>2026-05-02T12:41:01.999Z</time></trkpt><trkpt lat="39.65169193678479" lon="8.999631464192435"><ele>254.6</ele><time>2026-05-02T12:41:03.999Z</time></trkpt><trkpt lat="39.65158474257419" lon="8.999706195076122"><ele>254.8</ele><time>2026-05-02T12:41:05.999Z</time></trkpt><trkpt lat="39.65153035830943" lon="8.999757352014104"><ele>255.0</ele><time>2026-05-02T12:41:06.999Z</time></trkpt><trkpt lat="39.65146730546604" lon="8.999807484006148"><ele>255.0</ele><time>2026-05-02T12:41:07.999Z</time></trkpt><trkpt lat="39.6514133623912" lon="8.999854517052732"><ele>255.0</ele><time>2026-05-02T12:41:08.999Z</time></trkpt><trkpt lat="39.65130845117628" lon="8.999936018947825"><ele>255.0</ele><time>2026-05-02T12:41:10.999Z</time></trkpt><trkpt lat="39.65125587435568" lon="8.99998118747755"><ele>255.0</ele><time>2026-05-02T12:41:11.999Z</time></trkpt><trkpt lat="39.651159843914364" lon="9.000066226464053"><ele>255.0</ele><time>2026-05-02T12:41:13.999Z</time></trkpt><trkpt lat="39.65110406150508" lon="9.000109484936347"><ele>255.0</ele><time>2026-05-02T12:41:14.999Z</time></trkpt><trkpt lat="39.65102171932943" lon="9.000171660938404"><ele>255.66666666666666</ele><time>2026-05-02T12:41:16.999Z</time></trkpt><trkpt lat="39.650935299844654" lon="9.000250294325316"><ele>256.3333333333333</ele><time>2026-05-02T12:41:18.999Z</time></trkpt><trkpt lat="39.65084333512897" lon="9.000336535022909"><ele>257.0</ele><time>2026-05-02T12:41:21Z</time></trkpt><trkpt lat="39.65078810747257" lon="9.000382150082542"><ele>257.66666666666663</ele><time>2026-05-02T12:41:22Z</time></trkpt><trkpt lat="39.65072966937956" lon="9.000424681831129"><ele>258.3333333333333</ele><time>2026-05-02T12:41:23Z</time></trkpt><trkpt lat="39.65067254392171" lon="9.000463672672979"><ele>259.0</ele><time>2026-05-02T12:41:24Z</time></trkpt><trkpt lat="39.650617202020186" lon="9.000509215187524"><ele>259.0</ele><time>2026-05-02T12:41:25Z</time></trkpt><trkpt lat="39.65051959033049" lon="9.000610212540744"><ele>259.0</ele><time>2026-05-02T12:41:27Z</time></trkpt><trkpt lat="39.65047673120084" lon="9.000675536412842"><ele>259.0</ele><time>2026-05-02T12:41:28Z</time></trkpt><trkpt lat="39.65038789440013" lon="9.000795410024853"><ele>259.0</ele><time>2026-05-02T12:41:30Z</time></trkpt><trkpt lat="39.6503372069384" lon="9.000848694778862"><ele>259.0</ele><time>2026-05-02T12:41:31Z</time></trkpt><trkpt lat="39.650241993244414" lon="9.000972329155434"><ele>259.66666666666663</ele><time>2026-05-02T12:41:33Z</time></trkpt><trkpt lat="39.6501853778852" lon="9.001026105360063"><ele>260.3333333333333</ele><time>2026-05-02T12:41:34Z</time></trkpt><trkpt lat="39.650138293209245" lon="9.001080387350974"><ele>261.0</ele><time>2026-05-02T12:41:35Z</time></trkpt><trkpt lat="39.6500886180386" lon="9.001131066931812"><ele>261.6666666666667</ele><time>2026-05-02T12:41:36Z</time></trkpt><trkpt lat="39.650010657620626" lon="9.001222123146224"><ele>262.33333333333337</ele><time>2026-05-02T12:41:38Z</time></trkpt><trkpt lat="39.64994650986793" lon="9.001291397812405"><ele>263.0</ele><time>2026-05-02T12:41:40Z</time></trkpt><trkpt lat="39.64990488447051" lon="9.00138412224848"><ele>263.0</ele><time>2026-05-02T12:41:42Z</time></trkpt><trkpt lat="39.649898953338486" lon="9.001474987371957"><ele>263.0</ele><time>2026-05-02T12:41:43Z</time></trkpt><trkpt lat="39.649893208815264" lon="9.001570531538475"><ele>263.0</ele><time>2026-05-02T12:41:44Z</time></trkpt><trkpt lat="39.64988612078985" lon="9.001660575539562"><ele>263.0</ele><time>2026-05-02T12:41:45Z</time></trkpt><trkpt lat="39.64988096515029" lon="9.001742496541699"><ele>263.0</ele><time>2026-05-02T12:41:46Z</time></trkpt><trkpt lat="39.64987677182794" lon="9.001872947275846"><ele>263.0</ele><time>2026-05-02T12:41:48Z</time></trkpt><trkpt lat="39.64980933441308" lon="9.001937298590914"><ele>263.4</ele><time>2026-05-02T12:41:51Z</time></trkpt><trkpt lat="39.649715573604844" lon="9.001892150608647"><ele>263.8</ele><time>2026-05-02T12:41:53Z</time></trkpt><trkpt lat="39.64966983101227" lon="9.00180430319699"><ele>264.2</ele><time>2026-05-02T12:41:54Z</time></trkpt><trkpt lat="39.649582810717455" lon="9.00175843618729"><ele>264.6</ele><time>2026-05-02T12:41:55Z</time></trkpt><trkpt lat="39.64948591318977" lon="9.001707363060866"><ele>265.0</ele><time>2026-05-02T12:41:56Z</time></trkpt><trkpt lat="39.64936894171124" lon="9.001645709287764"><ele>266.75</ele><time>2026-05-02T12:41:57Z</time></trkpt><trkpt lat="39.64925255054194" lon="9.001582937165846"><ele>268.5</ele><time>2026-05-02T12:41:58Z</time></trkpt><trkpt lat="39.649124455136906" lon="9.00151760638975"><ele>270.25</ele><time>2026-05-02T12:41:59Z</time></trkpt><trkpt lat="39.64899100679712" lon="9.001488814105132"><ele>272.0</ele><time>2026-05-02T12:42:00Z</time></trkpt><trkpt lat="39.64885587254022" lon="9.00147593783615"><ele>272.0</ele><time>2026-05-02T12:42:01Z</time></trkpt><trkpt lat="39.64870042326009" lon="9.001472630945852"><ele>272.0</ele><time>2026-05-02T12:42:02Z</time></trkpt><trkpt lat="39.648525940069746" lon="9.001469349903221"><ele>272.0</ele><time>2026-05-02T12:42:03Z</time></trkpt><trkpt lat="39.64836676695935" lon="9.001465666885915"><ele>274.5</ele><time>2026-05-02T12:42:04Z</time></trkpt><trkpt lat="39.648234271774115" lon="9.001448542411998"><ele>277.0</ele><time>2026-05-02T12:42:05Z</time></trkpt><trkpt lat="39.64811522840854" lon="9.001379177619228"><ele>279.5</ele><time>2026-05-02T12:42:06Z</time></trkpt><trkpt lat="39.64796835102742" lon="9.001298951257066"><ele>282.0</ele><time>2026-05-02T12:42:07Z</time></trkpt><trkpt lat="39.647817582583194" lon="9.00119381198467"><ele>282.6</ele><time>2026-05-02T12:42:08Z</time></trkpt><trkpt lat="39.647682135778204" lon="9.001097605916778"><ele>283.2</ele><time>2026-05-02T12:42:09Z</time></trkpt><trkpt lat="39.64757888435468" lon="9.001021016769373"><ele>283.8</ele><time>2026-05-02T12:42:10Z</time></trkpt><trkpt lat="39.647500196670336" lon="9.000960724438595"><ele>284.4</ele><time>2026-05-02T12:42:11Z</time></trkpt><trkpt lat="39.64742451392484" lon="9.000913622739402"><ele>285.0</ele><time>2026-05-02T12:42:12Z</time></trkpt><trkpt lat="39.647377497700326" lon="9.000848078120049"><ele>285.0</ele><time>2026-05-02T12:42:14Z</time></trkpt><trkpt lat="39.64724815354623" lon="9.000855425969549"><ele>285.0</ele><time>2026-05-02T12:42:16Z</time></trkpt><trkpt lat="39.647171869413015" lon="9.000845005325141"><ele>285.0</ele><time>2026-05-02T12:42:16.999Z</time></trkpt><trkpt lat="39.647106453522895" lon="9.000863881201134"><ele>285.0</ele><time>2026-05-02T12:42:18.999Z</time></trkpt><trkpt lat="39.64713847359341" lon="9.00114043628653"><ele>285.0</ele><time>2026-05-02T12:42:19.999Z</time></trkpt><trkpt lat="39.6471917814252" lon="9.001266343172347"><ele>285.0</ele><time>2026-05-02T12:42:20.999Z</time></trkpt><trkpt lat="39.64724662809422" lon="9.001396117376554"><ele>285.0</ele><time>2026-05-02T12:42:21.999Z</time></trkpt><trkpt lat="39.647286343883124" lon="9.001535524896596"><ele>285.0</ele><time>2026-05-02T12:42:22.999Z</time></trkpt><trkpt lat="39.64733221724138" lon="9.00167441933615"><ele>284.8</ele><time>2026-05-02T12:42:23.999Z</time></trkpt><trkpt lat="39.64737375067452" lon="9.00179047772586"><ele>284.6</ele><time>2026-05-02T12:42:24.999Z</time></trkpt><trkpt lat="39.647410370239406" lon="9.001887135140782"><ele>284.4</ele><time>2026-05-02T12:42:25.999Z</time></trkpt><trkpt lat="39.647456413006715" lon="9.001999351789399"><ele>284.2</ele><time>2026-05-02T12:42:26.999Z</time></trkpt><trkpt lat="39.64751090858187" lon="9.002117463567755"><ele>284.0</ele><time>2026-05-02T12:42:27.999Z</time></trkpt><trkpt lat="39.647584014819365" lon="9.002274041160247"><ele>284.0</ele><time>2026-05-02T12:42:28.999Z</time></trkpt><trkpt lat="39.64767765418022" lon="9.00246499775243"><ele>284.0</ele><time>2026-05-02T12:42:29.999Z</time></trkpt><trkpt lat="39.64778191930212" lon="9.002670143737165"><ele>284.0</ele><time>2026-05-02T12:42:30.999Z</time></trkpt><trkpt lat="39.64787443242346" lon="9.002849229314947"><ele>283.75</ele><time>2026-05-02T12:42:31.999Z</time></trkpt><trkpt lat="39.647936960437576" lon="9.00304259091403"><ele>283.5</ele><time>2026-05-02T12:42:32.999Z</time></trkpt><trkpt lat="39.64798111325691" lon="9.003202727095884"><ele>283.25</ele><time>2026-05-02T12:42:33.999Z</time></trkpt><trkpt lat="39.64801881217611" lon="9.003339693038392"><ele>283.0</ele><time>2026-05-02T12:42:34.999Z</time></trkpt><trkpt lat="39.64804785408758" lon="9.003454239646832"><ele>283.8</ele><time>2026-05-02T12:42:35.999Z</time></trkpt><trkpt lat="39.648070793054536" lon="9.00354445811029"><ele>284.6</ele><time>2026-05-02T12:42:36.999Z</time></trkpt><trkpt lat="39.64809182111444" lon="9.003659333876486"><ele>285.4</ele><time>2026-05-02T12:42:38.999Z</time></trkpt><trkpt lat="39.64793632663928" lon="9.00371822139506"><ele>286.2</ele><time>2026-05-02T12:42:40.999Z</time></trkpt><trkpt lat="39.647839284632305" lon="9.003764934111341"><ele>287.0</ele><time>2026-05-02T12:42:41.999Z</time></trkpt><trkpt lat="39.64772497472763" lon="9.003821880516043"><ele>288.75</ele><time>2026-05-02T12:42:42.999Z</time></trkpt><trkpt lat="39.64761565090202" lon="9.003902234672056"><ele>290.5</ele><time>2026-05-02T12:42:43.999Z</time></trkpt><trkpt lat="39.64748565174711" lon="9.00399027814613"><ele>292.25</ele><time>2026-05-02T12:42:44.999Z</time></trkpt><trkpt lat="39.64736038994" lon="9.004099742153919"><ele>294.0</ele><time>2026-05-02T12:42:45.999Z</time></trkpt><trkpt lat="39.64725316449769" lon="9.00422827049858"><ele>294.0</ele><time>2026-05-02T12:42:46.999Z</time></trkpt><trkpt lat="39.647140368370295" lon="9.004389411632907"><ele>294.0</ele><time>2026-05-02T12:42:47.999Z</time></trkpt><trkpt lat="39.64703082173085" lon="9.00459179832524"><ele>294.0</ele><time>2026-05-02T12:42:48.999Z</time></trkpt><trkpt lat="39.64691524611629" lon="9.004805429701184"><ele>295.0</ele><time>2026-05-02T12:42:49.999Z</time></trkpt><trkpt lat="39.64679987826883" lon="9.00501003126821"><ele>296.0</ele><time>2026-05-02T12:42:50.999Z</time></trkpt><trkpt lat="39.64669039235242" lon="9.005173974396678"><ele>297.0</ele><time>2026-05-02T12:42:51.999Z</time></trkpt><trkpt lat="39.646611074270176" lon="9.005347746383572"><ele>297.0</ele><time>2026-05-02T12:42:52.999Z</time></trkpt><trkpt lat="39.64651162452497" lon="9.005484426590455"><ele>297.0</ele><time>2026-05-02T12:42:53.999Z</time></trkpt><trkpt lat="39.646428846401896" lon="9.00562463204531"><ele>297.0</ele><time>2026-05-02T12:42:54.999Z</time></trkpt><trkpt lat="39.64634699181964" lon="9.005762558891"><ele>297.0</ele><time>2026-05-02T12:42:55.999Z</time></trkpt><trkpt lat="39.646276335069516" lon="9.00588828337237"><ele>296.8</ele><time>2026-05-02T12:42:56.999Z</time></trkpt><trkpt lat="39.64619445857466" lon="9.006028340440135"><ele>296.6</ele><time>2026-05-02T12:42:57.999Z</time></trkpt><trkpt lat="39.646126118228466" lon="9.00614791788896"><ele>296.40000000000003</ele><time>2026-05-02T12:42:58.999Z</time></trkpt><trkpt lat="39.64607387282673" lon="9.006238906470392"><ele>296.2</ele><time>2026-05-02T12:42:59.999Z</time></trkpt><trkpt lat="39.64603453522737" lon="9.006306824895168"><ele>296.0</ele><time>2026-05-02T12:43:00.999Z</time></trkpt><trkpt lat="39.64595809165769" lon="9.006389950676812"><ele>295.0</ele><time>2026-05-02T12:43:02.999Z</time></trkpt><trkpt lat="39.64591390907123" lon="9.00644851694366"><ele>294.0</ele><time>2026-05-02T12:43:04.999Z</time></trkpt><trkpt lat="39.64583937747547" lon="9.006319079978203"><ele>293.0</ele><time>2026-05-02T12:43:05.999Z</time></trkpt><trkpt lat="39.645775775267765" lon="9.006279371679852"><ele>292.0</ele><time>2026-05-02T12:43:06.999Z</time></trkpt><trkpt lat="39.645694844230604" lon="9.006228844877533"><ele>291.0</ele><time>2026-05-02T12:43:07.999Z</time></trkpt><trkpt lat="39.645610413536495" lon="9.006176159545463"><ele>290.0</ele><time>2026-05-02T12:43:08.999Z</time></trkpt><trkpt lat="39.645528242040534" lon="9.006128790520794"><ele>290.0</ele><time>2026-05-02T12:43:09.999Z</time></trkpt><trkpt lat="39.64545409719949" lon="9.006093331734242"><ele>290.0</ele><time>2026-05-02T12:43:10.999Z</time></trkpt><trkpt lat="39.645396404400415" lon="9.006034352771366"><ele>290.0</ele><time>2026-05-02T12:43:11.999Z</time></trkpt><trkpt lat="39.645337404149494" lon="9.005995258017602"><ele>290.0</ele><time>2026-05-02T12:43:12.999Z</time></trkpt><trkpt lat="39.6452599403932" lon="9.005943928777828"><ele>290.0</ele><time>2026-05-02T12:43:14.999Z</time></trkpt><trkpt lat="39.64531087150503" lon="9.005857148788966"><ele>290.0</ele><time>2026-05-02T12:43:16.999Z</time></trkpt><trkpt lat="39.64535428343478" lon="9.00575483085723"><ele>289.7142857142857</ele><time>2026-05-02T12:43:17.999Z</time></trkpt><trkpt lat="39.645380960508085" lon="9.0056667812964"><ele>289.42857142857144</ele><time>2026-05-02T12:43:18.999Z</time></trkpt><trkpt lat="39.64543410877111" lon="9.005583487731721"><ele>289.14285714285717</ele><time>2026-05-02T12:43:20.999Z</time></trkpt><trkpt lat="39.6453762733062" lon="9.005528136626008"><ele>288.8571428571429</ele><time>2026-05-02T12:44:03Z</time></trkpt><trkpt lat="39.64529535948795" lon="9.005479283261202"><ele>288.57142857142856</ele><time>2026-05-02T12:44:06Z</time></trkpt><trkpt lat="39.64523774164568" lon="9.005439921795857"><ele>288.28571428571433</ele><time>2026-05-02T12:44:08Z</time></trkpt><trkpt lat="39.64520709170533" lon="9.00551284981198"><ele>288.0</ele><time>2026-05-02T12:44:14Z</time></trkpt><trkpt lat="39.64519329413169" lon="9.005594202152793"><ele>282.0</ele><time>2026-05-02T12:44:27.999Z</time></trkpt><trkpt lat="39.645213133154975" lon="9.00549979697402"><ele>282.0</ele><time>2026-05-02T12:44:51.999Z</time></trkpt><trkpt lat="39.64517639389995" lon="9.00559179046566"><ele>282.0</ele><time>2026-05-02T12:45:06.999Z</time></trkpt><trkpt lat="39.64519390223297" lon="9.005506912937683"><ele>282.0</ele><time>2026-05-02T12:45:14.999Z</time></trkpt><trkpt lat="39.64526592005205" lon="9.005488934529648"><ele>282.0</ele><time>2026-05-02T12:45:34Z</time></trkpt><trkpt lat="39.645143594325454" lon="9.005551404410726"><ele>282.0</ele><time>2026-05-02T12:46:25Z</time></trkpt></trkseg></trk></gpx>